<?xml version="1.0" encoding="UTF-8" standalone="no" ?>
<gpx xmlns="http://www.topografix.com/GPX/1/1" xmlns:xsi="http://www.w3.org/2001/XMLSchema-instance" xsi:schemaLocation="http://www.topografix.com/GPX/1/1 http://www.topografix.com/GPX/1/1/gpx.xsd" version="1.1" creator="VisuGPX - https://www.visugpx.com">
  <metadata>
    <name>2025 08 28 Thézac 8.4 km</name>
  </metadata>
  <trk>
    <name><![CDATA[2025 08 28 Thézac 8.4 km]]></name>
    <extensions>
      <line xmlns="http://www.topografix.com/GPX/gpx_style/0/2">
        <color>0000FF</color>
        <width>4</width>
      </line>
    </extensions>
    <trkseg>
      <trkpt lat="44.42955" lon="1.01463">
        <ele>228</ele>
        <time>2025-08-28T07:03:19.000Z</time>
      </trkpt>
      <trkpt lat="44.42943" lon="1.01486">
        <ele>276</ele>
        <time>2025-08-28T07:03:29.000Z</time>
      </trkpt>
      <trkpt lat="44.42935" lon="1.01488">
        <ele>276</ele>
        <time>2025-08-28T07:03:37.000Z</time>
      </trkpt>
      <trkpt lat="44.4293" lon="1.01498">
        <ele>277</ele>
        <time>2025-08-28T07:03:49.000Z</time>
      </trkpt>
      <trkpt lat="44.42924" lon="1.0151">
        <ele>276</ele>
        <time>2025-08-28T07:03:58.000Z</time>
      </trkpt>
      <trkpt lat="44.42918" lon="1.0152">
        <ele>276</ele>
        <time>2025-08-28T07:04:09.000Z</time>
      </trkpt>
      <trkpt lat="44.42914" lon="1.01532">
        <ele>275</ele>
        <time>2025-08-28T07:04:17.000Z</time>
      </trkpt>
      <trkpt lat="44.42912" lon="1.01545">
        <ele>274</ele>
        <time>2025-08-28T07:04:27.000Z</time>
      </trkpt>
      <trkpt lat="44.42908" lon="1.01558">
        <ele>274</ele>
        <time>2025-08-28T07:04:37.000Z</time>
      </trkpt>
      <trkpt lat="44.42906" lon="1.01571">
        <ele>273</ele>
        <time>2025-08-28T07:04:47.000Z</time>
      </trkpt>
      <trkpt lat="44.42909" lon="1.01584">
        <ele>272</ele>
        <time>2025-08-28T07:04:55.000Z</time>
      </trkpt>
      <trkpt lat="44.42911" lon="1.01596">
        <ele>271</ele>
        <time>2025-08-28T07:05:03.000Z</time>
      </trkpt>
      <trkpt lat="44.42916" lon="1.01607">
        <ele>270</ele>
        <time>2025-08-28T07:05:10.000Z</time>
      </trkpt>
      <trkpt lat="44.42923" lon="1.01617">
        <ele>270</ele>
        <time>2025-08-28T07:05:19.000Z</time>
      </trkpt>
      <trkpt lat="44.42932" lon="1.01622">
        <ele>269</ele>
        <time>2025-08-28T07:05:27.000Z</time>
      </trkpt>
      <trkpt lat="44.42939" lon="1.01632">
        <ele>269</ele>
        <time>2025-08-28T07:05:36.000Z</time>
      </trkpt>
      <trkpt lat="44.42946" lon="1.01641">
        <ele>270</ele>
        <time>2025-08-28T07:05:45.000Z</time>
      </trkpt>
      <trkpt lat="44.42952" lon="1.0165">
        <ele>270</ele>
        <time>2025-08-28T07:05:51.000Z</time>
      </trkpt>
      <trkpt lat="44.42957" lon="1.01662">
        <ele>271</ele>
        <time>2025-08-28T07:05:59.000Z</time>
      </trkpt>
      <trkpt lat="44.42965" lon="1.01671">
        <ele>272</ele>
        <time>2025-08-28T07:06:07.000Z</time>
      </trkpt>
      <trkpt lat="44.42971" lon="1.01682">
        <ele>272</ele>
        <time>2025-08-28T07:06:15.000Z</time>
      </trkpt>
      <trkpt lat="44.42977" lon="1.01694">
        <ele>272</ele>
        <time>2025-08-28T07:06:23.000Z</time>
      </trkpt>
      <trkpt lat="44.42983" lon="1.01705">
        <ele>272</ele>
        <time>2025-08-28T07:06:31.000Z</time>
      </trkpt>
      <trkpt lat="44.42988" lon="1.01716">
        <ele>273</ele>
        <time>2025-08-28T07:06:39.000Z</time>
      </trkpt>
      <trkpt lat="44.42995" lon="1.01728">
        <ele>273</ele>
        <time>2025-08-28T07:06:46.000Z</time>
      </trkpt>
      <trkpt lat="44.43" lon="1.01739">
        <ele>273</ele>
        <time>2025-08-28T07:06:55.000Z</time>
      </trkpt>
      <trkpt lat="44.43007" lon="1.0175">
        <ele>274</ele>
        <time>2025-08-28T07:07:02.000Z</time>
      </trkpt>
      <trkpt lat="44.43012" lon="1.01763">
        <ele>275</ele>
        <time>2025-08-28T07:07:10.000Z</time>
      </trkpt>
      <trkpt lat="44.43016" lon="1.01775">
        <ele>276</ele>
        <time>2025-08-28T07:07:19.000Z</time>
      </trkpt>
      <trkpt lat="44.43023" lon="1.01782">
        <ele>276</ele>
        <time>2025-08-28T07:07:28.000Z</time>
      </trkpt>
      <trkpt lat="44.43029" lon="1.0178">
        <ele>277</ele>
        <time>2025-08-28T07:07:37.000Z</time>
      </trkpt>
      <trkpt lat="44.4303" lon="1.01793">
        <ele>277</ele>
        <time>2025-08-28T07:07:49.000Z</time>
      </trkpt>
      <trkpt lat="44.43034" lon="1.01807">
        <ele>277</ele>
        <time>2025-08-28T07:07:56.000Z</time>
      </trkpt>
      <trkpt lat="44.43041" lon="1.01815">
        <ele>277</ele>
        <time>2025-08-28T07:08:05.000Z</time>
      </trkpt>
      <trkpt lat="44.4305" lon="1.01824">
        <ele>278</ele>
        <time>2025-08-28T07:08:13.000Z</time>
      </trkpt>
      <trkpt lat="44.43059" lon="1.01832">
        <ele>278</ele>
        <time>2025-08-28T07:08:21.000Z</time>
      </trkpt>
      <trkpt lat="44.43067" lon="1.01841">
        <ele>276</ele>
        <time>2025-08-28T07:08:29.000Z</time>
      </trkpt>
      <trkpt lat="44.43075" lon="1.01851">
        <ele>274</ele>
        <time>2025-08-28T07:08:38.000Z</time>
      </trkpt>
      <trkpt lat="44.43081" lon="1.0186">
        <ele>271</ele>
        <time>2025-08-28T07:08:46.000Z</time>
      </trkpt>
      <trkpt lat="44.43087" lon="1.01868">
        <ele>268</ele>
        <time>2025-08-28T07:08:53.000Z</time>
      </trkpt>
      <trkpt lat="44.43094" lon="1.01878">
        <ele>266</ele>
        <time>2025-08-28T07:09:00.000Z</time>
      </trkpt>
      <trkpt lat="44.431" lon="1.01887">
        <ele>264</ele>
        <time>2025-08-28T07:09:08.000Z</time>
      </trkpt>
      <trkpt lat="44.43108" lon="1.01895">
        <ele>262</ele>
        <time>2025-08-28T07:09:17.000Z</time>
      </trkpt>
      <trkpt lat="44.43115" lon="1.01903">
        <ele>261</ele>
        <time>2025-08-28T07:09:25.000Z</time>
      </trkpt>
      <trkpt lat="44.43122" lon="1.01911">
        <ele>260</ele>
        <time>2025-08-28T07:09:33.000Z</time>
      </trkpt>
      <trkpt lat="44.43129" lon="1.01921">
        <ele>259</ele>
        <time>2025-08-28T07:09:43.000Z</time>
      </trkpt>
      <trkpt lat="44.43135" lon="1.01931">
        <ele>259</ele>
        <time>2025-08-28T07:09:51.000Z</time>
      </trkpt>
      <trkpt lat="44.43143" lon="1.01943">
        <ele>258</ele>
        <time>2025-08-28T07:09:59.000Z</time>
      </trkpt>
      <trkpt lat="44.43153" lon="1.01951">
        <ele>258</ele>
        <time>2025-08-28T07:10:06.000Z</time>
      </trkpt>
      <trkpt lat="44.43161" lon="1.0196">
        <ele>257</ele>
        <time>2025-08-28T07:10:15.000Z</time>
      </trkpt>
      <trkpt lat="44.43168" lon="1.0197">
        <ele>256</ele>
        <time>2025-08-28T07:10:25.000Z</time>
      </trkpt>
      <trkpt lat="44.43172" lon="1.01982">
        <ele>256</ele>
        <time>2025-08-28T07:10:34.000Z</time>
      </trkpt>
      <trkpt lat="44.43173" lon="1.01995">
        <ele>255</ele>
        <time>2025-08-28T07:10:44.000Z</time>
      </trkpt>
      <trkpt lat="44.43173" lon="1.02008">
        <ele>255</ele>
        <time>2025-08-28T07:10:53.000Z</time>
      </trkpt>
      <trkpt lat="44.43172" lon="1.0202">
        <ele>255</ele>
        <time>2025-08-28T07:11:01.000Z</time>
      </trkpt>
      <trkpt lat="44.43173" lon="1.02033">
        <ele>255</ele>
        <time>2025-08-28T07:11:11.000Z</time>
      </trkpt>
      <trkpt lat="44.43173" lon="1.02046">
        <ele>254</ele>
        <time>2025-08-28T07:11:25.000Z</time>
      </trkpt>
      <trkpt lat="44.43175" lon="1.02059">
        <ele>254</ele>
        <time>2025-08-28T07:11:32.000Z</time>
      </trkpt>
      <trkpt lat="44.43177" lon="1.02073">
        <ele>254</ele>
        <time>2025-08-28T07:11:43.000Z</time>
      </trkpt>
      <trkpt lat="44.43178" lon="1.02086">
        <ele>255</ele>
        <time>2025-08-28T07:11:51.000Z</time>
      </trkpt>
      <trkpt lat="44.43181" lon="1.02101">
        <ele>255</ele>
        <time>2025-08-28T07:12:01.000Z</time>
      </trkpt>
      <trkpt lat="44.43182" lon="1.02115">
        <ele>256</ele>
        <time>2025-08-28T07:12:08.000Z</time>
      </trkpt>
      <trkpt lat="44.43186" lon="1.02129">
        <ele>256</ele>
        <time>2025-08-28T07:12:21.000Z</time>
      </trkpt>
      <trkpt lat="44.4319" lon="1.02139">
        <ele>256</ele>
        <time>2025-08-28T07:12:27.000Z</time>
      </trkpt>
      <trkpt lat="44.43198" lon="1.02148">
        <ele>256</ele>
        <time>2025-08-28T07:12:36.000Z</time>
      </trkpt>
      <trkpt lat="44.43205" lon="1.02156">
        <ele>256</ele>
        <time>2025-08-28T07:12:43.000Z</time>
      </trkpt>
      <trkpt lat="44.43212" lon="1.02164">
        <ele>257</ele>
        <time>2025-08-28T07:12:50.000Z</time>
      </trkpt>
      <trkpt lat="44.4322" lon="1.02172">
        <ele>257</ele>
        <time>2025-08-28T07:13:00.000Z</time>
      </trkpt>
      <trkpt lat="44.4323" lon="1.02176">
        <ele>258</ele>
        <time>2025-08-28T07:13:08.000Z</time>
      </trkpt>
      <trkpt lat="44.43239" lon="1.02182">
        <ele>259</ele>
        <time>2025-08-28T07:13:16.000Z</time>
      </trkpt>
      <trkpt lat="44.43247" lon="1.02187">
        <ele>260</ele>
        <time>2025-08-28T07:13:23.000Z</time>
      </trkpt>
      <trkpt lat="44.43256" lon="1.02187">
        <ele>261</ele>
        <time>2025-08-28T07:13:29.000Z</time>
      </trkpt>
      <trkpt lat="44.43266" lon="1.02189">
        <ele>261</ele>
        <time>2025-08-28T07:13:37.000Z</time>
      </trkpt>
      <trkpt lat="44.43275" lon="1.02192">
        <ele>262</ele>
        <time>2025-08-28T07:13:45.000Z</time>
      </trkpt>
      <trkpt lat="44.43286" lon="1.02196">
        <ele>262</ele>
        <time>2025-08-28T07:13:53.000Z</time>
      </trkpt>
      <trkpt lat="44.43295" lon="1.02199">
        <ele>263</ele>
        <time>2025-08-28T07:14:01.000Z</time>
      </trkpt>
      <trkpt lat="44.43304" lon="1.02204">
        <ele>264</ele>
        <time>2025-08-28T07:14:22.000Z</time>
      </trkpt>
      <trkpt lat="44.43313" lon="1.02206">
        <ele>264</ele>
        <time>2025-08-28T07:14:28.000Z</time>
      </trkpt>
      <trkpt lat="44.43322" lon="1.02211">
        <ele>265</ele>
        <time>2025-08-28T07:14:37.000Z</time>
      </trkpt>
      <trkpt lat="44.43331" lon="1.02218">
        <ele>265</ele>
        <time>2025-08-28T07:14:45.000Z</time>
      </trkpt>
      <trkpt lat="44.43338" lon="1.02227">
        <ele>265</ele>
        <time>2025-08-28T07:14:53.000Z</time>
      </trkpt>
      <trkpt lat="44.43346" lon="1.02235">
        <ele>266</ele>
        <time>2025-08-28T07:15:02.000Z</time>
      </trkpt>
      <trkpt lat="44.43353" lon="1.02243">
        <ele>266</ele>
        <time>2025-08-28T07:15:12.000Z</time>
      </trkpt>
      <trkpt lat="44.43361" lon="1.0225">
        <ele>266</ele>
        <time>2025-08-28T07:15:20.000Z</time>
      </trkpt>
      <trkpt lat="44.43369" lon="1.02257">
        <ele>266</ele>
        <time>2025-08-28T07:15:30.000Z</time>
      </trkpt>
      <trkpt lat="44.43377" lon="1.02264">
        <ele>266</ele>
        <time>2025-08-28T07:15:39.000Z</time>
      </trkpt>
      <trkpt lat="44.43386" lon="1.02269">
        <ele>266</ele>
        <time>2025-08-28T07:15:49.000Z</time>
      </trkpt>
      <trkpt lat="44.43395" lon="1.02272">
        <ele>266</ele>
        <time>2025-08-28T07:15:57.000Z</time>
      </trkpt>
      <trkpt lat="44.43403" lon="1.02278">
        <ele>265</ele>
        <time>2025-08-28T07:16:07.000Z</time>
      </trkpt>
      <trkpt lat="44.4341" lon="1.02287">
        <ele>265</ele>
        <time>2025-08-28T07:16:15.000Z</time>
      </trkpt>
      <trkpt lat="44.43419" lon="1.02292">
        <ele>266</ele>
        <time>2025-08-28T07:16:23.000Z</time>
      </trkpt>
      <trkpt lat="44.43429" lon="1.02295">
        <ele>266</ele>
        <time>2025-08-28T07:16:31.000Z</time>
      </trkpt>
      <trkpt lat="44.43437" lon="1.023">
        <ele>267</ele>
        <time>2025-08-28T07:16:39.000Z</time>
      </trkpt>
      <trkpt lat="44.43445" lon="1.02304">
        <ele>268</ele>
        <time>2025-08-28T07:16:47.000Z</time>
      </trkpt>
      <trkpt lat="44.43453" lon="1.0231">
        <ele>268</ele>
        <time>2025-08-28T07:16:55.000Z</time>
      </trkpt>
      <trkpt lat="44.43462" lon="1.02316">
        <ele>271</ele>
        <time>2025-08-28T07:17:03.000Z</time>
      </trkpt>
      <trkpt lat="44.43471" lon="1.02324">
        <ele>274</ele>
        <time>2025-08-28T07:17:11.000Z</time>
      </trkpt>
      <trkpt lat="44.4348" lon="1.0233">
        <ele>277</ele>
        <time>2025-08-28T07:17:18.000Z</time>
      </trkpt>
      <trkpt lat="44.43488" lon="1.02337">
        <ele>279</ele>
        <time>2025-08-28T07:17:31.000Z</time>
      </trkpt>
      <trkpt lat="44.43497" lon="1.02345">
        <ele>281</ele>
        <time>2025-08-28T07:17:45.000Z</time>
      </trkpt>
      <trkpt lat="44.43505" lon="1.02353">
        <ele>282</ele>
        <time>2025-08-28T07:17:55.000Z</time>
      </trkpt>
      <trkpt lat="44.43512" lon="1.02361">
        <ele>283</ele>
        <time>2025-08-28T07:18:02.000Z</time>
      </trkpt>
      <trkpt lat="44.4352" lon="1.0237">
        <ele>284</ele>
        <time>2025-08-28T07:18:11.000Z</time>
      </trkpt>
      <trkpt lat="44.43528" lon="1.02378">
        <ele>284</ele>
        <time>2025-08-28T07:18:18.000Z</time>
      </trkpt>
      <trkpt lat="44.43536" lon="1.02385">
        <ele>285</ele>
        <time>2025-08-28T07:18:26.000Z</time>
      </trkpt>
      <trkpt lat="44.43545" lon="1.02388">
        <ele>285</ele>
        <time>2025-08-28T07:18:36.000Z</time>
      </trkpt>
      <trkpt lat="44.43554" lon="1.0239">
        <ele>285</ele>
        <time>2025-08-28T07:18:45.000Z</time>
      </trkpt>
      <trkpt lat="44.43563" lon="1.02393">
        <ele>285</ele>
        <time>2025-08-28T07:18:54.000Z</time>
      </trkpt>
      <trkpt lat="44.43571" lon="1.02397">
        <ele>286</ele>
        <time>2025-08-28T07:19:04.000Z</time>
      </trkpt>
      <trkpt lat="44.43576" lon="1.02407">
        <ele>286</ele>
        <time>2025-08-28T07:19:11.000Z</time>
      </trkpt>
      <trkpt lat="44.43571" lon="1.02417">
        <ele>286</ele>
        <time>2025-08-28T07:20:23.000Z</time>
      </trkpt>
      <trkpt lat="44.43564" lon="1.02427">
        <ele>286</ele>
        <time>2025-08-28T07:20:34.000Z</time>
      </trkpt>
      <trkpt lat="44.43558" lon="1.02438">
        <ele>286</ele>
        <time>2025-08-28T07:21:03.000Z</time>
      </trkpt>
      <trkpt lat="44.43555" lon="1.02449">
        <ele>286</ele>
        <time>2025-08-28T07:21:11.000Z</time>
      </trkpt>
      <trkpt lat="44.43549" lon="1.02461">
        <ele>286</ele>
        <time>2025-08-28T07:21:19.000Z</time>
      </trkpt>
      <trkpt lat="44.43543" lon="1.02474">
        <ele>286</ele>
        <time>2025-08-28T07:21:27.000Z</time>
      </trkpt>
      <trkpt lat="44.43537" lon="1.02485">
        <ele>286</ele>
        <time>2025-08-28T07:21:33.000Z</time>
      </trkpt>
      <trkpt lat="44.4353" lon="1.02496">
        <ele>286</ele>
        <time>2025-08-28T07:21:40.000Z</time>
      </trkpt>
      <trkpt lat="44.43521" lon="1.02504">
        <ele>286</ele>
        <time>2025-08-28T07:21:50.000Z</time>
      </trkpt>
      <trkpt lat="44.43514" lon="1.02512">
        <ele>286</ele>
        <time>2025-08-28T07:21:57.000Z</time>
      </trkpt>
      <trkpt lat="44.43505" lon="1.02518">
        <ele>286</ele>
        <time>2025-08-28T07:22:05.000Z</time>
      </trkpt>
      <trkpt lat="44.43496" lon="1.02522">
        <ele>286</ele>
        <time>2025-08-28T07:22:13.000Z</time>
      </trkpt>
      <trkpt lat="44.43487" lon="1.02527">
        <ele>286</ele>
        <time>2025-08-28T07:22:20.000Z</time>
      </trkpt>
      <trkpt lat="44.43477" lon="1.02532">
        <ele>286</ele>
        <time>2025-08-28T07:22:29.000Z</time>
      </trkpt>
      <trkpt lat="44.43468" lon="1.02536">
        <ele>286</ele>
        <time>2025-08-28T07:22:36.000Z</time>
      </trkpt>
      <trkpt lat="44.4346" lon="1.02542">
        <ele>285</ele>
        <time>2025-08-28T07:22:43.000Z</time>
      </trkpt>
      <trkpt lat="44.43452" lon="1.02549">
        <ele>285</ele>
        <time>2025-08-28T07:22:51.000Z</time>
      </trkpt>
      <trkpt lat="44.43445" lon="1.02558">
        <ele>284</ele>
        <time>2025-08-28T07:22:58.000Z</time>
      </trkpt>
      <trkpt lat="44.43437" lon="1.02568">
        <ele>282</ele>
        <time>2025-08-28T07:23:07.000Z</time>
      </trkpt>
      <trkpt lat="44.43429" lon="1.02577">
        <ele>281</ele>
        <time>2025-08-28T07:23:14.000Z</time>
      </trkpt>
      <trkpt lat="44.43421" lon="1.02587">
        <ele>282</ele>
        <time>2025-08-28T07:23:22.000Z</time>
      </trkpt>
      <trkpt lat="44.43414" lon="1.02595">
        <ele>283</ele>
        <time>2025-08-28T07:23:29.000Z</time>
      </trkpt>
      <trkpt lat="44.43406" lon="1.02602">
        <ele>285</ele>
        <time>2025-08-28T07:23:36.000Z</time>
      </trkpt>
      <trkpt lat="44.43397" lon="1.0261">
        <ele>286</ele>
        <time>2025-08-28T07:23:45.000Z</time>
      </trkpt>
      <trkpt lat="44.43389" lon="1.02615">
        <ele>286</ele>
        <time>2025-08-28T07:23:51.000Z</time>
      </trkpt>
      <trkpt lat="44.43382" lon="1.02621">
        <ele>286</ele>
        <time>2025-08-28T07:23:57.000Z</time>
      </trkpt>
      <trkpt lat="44.43374" lon="1.02628">
        <ele>285</ele>
        <time>2025-08-28T07:24:09.000Z</time>
      </trkpt>
      <trkpt lat="44.43365" lon="1.02636">
        <ele>285</ele>
        <time>2025-08-28T07:24:18.000Z</time>
      </trkpt>
      <trkpt lat="44.43356" lon="1.02644">
        <ele>285</ele>
        <time>2025-08-28T07:24:27.000Z</time>
      </trkpt>
      <trkpt lat="44.43348" lon="1.02651">
        <ele>285</ele>
        <time>2025-08-28T07:24:34.000Z</time>
      </trkpt>
      <trkpt lat="44.4334" lon="1.02658">
        <ele>285</ele>
        <time>2025-08-28T07:24:42.000Z</time>
      </trkpt>
      <trkpt lat="44.43333" lon="1.02664">
        <ele>285</ele>
        <time>2025-08-28T07:24:51.000Z</time>
      </trkpt>
      <trkpt lat="44.43326" lon="1.02673">
        <ele>285</ele>
        <time>2025-08-28T07:24:56.000Z</time>
      </trkpt>
      <trkpt lat="44.43317" lon="1.02679">
        <ele>285</ele>
        <time>2025-08-28T07:25:07.000Z</time>
      </trkpt>
      <trkpt lat="44.43308" lon="1.02676">
        <ele>285</ele>
        <time>2025-08-28T07:25:14.000Z</time>
      </trkpt>
      <trkpt lat="44.43299" lon="1.02668">
        <ele>285</ele>
        <time>2025-08-28T07:25:23.000Z</time>
      </trkpt>
      <trkpt lat="44.43291" lon="1.02663">
        <ele>285</ele>
        <time>2025-08-28T07:25:32.000Z</time>
      </trkpt>
      <trkpt lat="44.43282" lon="1.02663">
        <ele>285</ele>
        <time>2025-08-28T07:26:17.000Z</time>
      </trkpt>
      <trkpt lat="44.43272" lon="1.02663">
        <ele>285</ele>
        <time>2025-08-28T07:26:24.000Z</time>
      </trkpt>
      <trkpt lat="44.43262" lon="1.02663">
        <ele>285</ele>
        <time>2025-08-28T07:26:33.000Z</time>
      </trkpt>
      <trkpt lat="44.43253" lon="1.02662">
        <ele>285</ele>
        <time>2025-08-28T07:26:40.000Z</time>
      </trkpt>
      <trkpt lat="44.43243" lon="1.02661">
        <ele>285</ele>
        <time>2025-08-28T07:26:48.000Z</time>
      </trkpt>
      <trkpt lat="44.43234" lon="1.02662">
        <ele>285</ele>
        <time>2025-08-28T07:26:56.000Z</time>
      </trkpt>
      <trkpt lat="44.43224" lon="1.02669">
        <ele>285</ele>
        <time>2025-08-28T07:27:06.000Z</time>
      </trkpt>
      <trkpt lat="44.43216" lon="1.02678">
        <ele>284</ele>
        <time>2025-08-28T07:27:15.000Z</time>
      </trkpt>
      <trkpt lat="44.43206" lon="1.02686">
        <ele>282</ele>
        <time>2025-08-28T07:27:25.000Z</time>
      </trkpt>
      <trkpt lat="44.43198" lon="1.02695">
        <ele>281</ele>
        <time>2025-08-28T07:27:33.000Z</time>
      </trkpt>
      <trkpt lat="44.43191" lon="1.02703">
        <ele>279</ele>
        <time>2025-08-28T07:27:41.000Z</time>
      </trkpt>
      <trkpt lat="44.43183" lon="1.0271">
        <ele>279</ele>
        <time>2025-08-28T07:27:49.000Z</time>
      </trkpt>
      <trkpt lat="44.43174" lon="1.02713">
        <ele>279</ele>
        <time>2025-08-28T07:27:57.000Z</time>
      </trkpt>
      <trkpt lat="44.43165" lon="1.02717">
        <ele>279</ele>
        <time>2025-08-28T07:28:05.000Z</time>
      </trkpt>
      <trkpt lat="44.43156" lon="1.02722">
        <ele>279</ele>
        <time>2025-08-28T07:28:13.000Z</time>
      </trkpt>
      <trkpt lat="44.43146" lon="1.02727">
        <ele>279</ele>
        <time>2025-08-28T07:28:23.000Z</time>
      </trkpt>
      <trkpt lat="44.43137" lon="1.02729">
        <ele>280</ele>
        <time>2025-08-28T07:28:30.000Z</time>
      </trkpt>
      <trkpt lat="44.43128" lon="1.0273">
        <ele>280</ele>
        <time>2025-08-28T07:28:39.000Z</time>
      </trkpt>
      <trkpt lat="44.43117" lon="1.02731">
        <ele>280</ele>
        <time>2025-08-28T07:28:47.000Z</time>
      </trkpt>
      <trkpt lat="44.43108" lon="1.02732">
        <ele>280</ele>
        <time>2025-08-28T07:28:55.000Z</time>
      </trkpt>
      <trkpt lat="44.43099" lon="1.02733">
        <ele>280</ele>
        <time>2025-08-28T07:29:03.000Z</time>
      </trkpt>
      <trkpt lat="44.4309" lon="1.02734">
        <ele>280</ele>
        <time>2025-08-28T07:29:09.000Z</time>
      </trkpt>
      <trkpt lat="44.43081" lon="1.02735">
        <ele>280</ele>
        <time>2025-08-28T07:29:15.000Z</time>
      </trkpt>
      <trkpt lat="44.43072" lon="1.02737">
        <ele>280</ele>
        <time>2025-08-28T07:29:24.000Z</time>
      </trkpt>
      <trkpt lat="44.43063" lon="1.02734">
        <ele>280</ele>
        <time>2025-08-28T07:29:32.000Z</time>
      </trkpt>
      <trkpt lat="44.43054" lon="1.02736">
        <ele>280</ele>
        <time>2025-08-28T07:29:45.000Z</time>
      </trkpt>
      <trkpt lat="44.43045" lon="1.02738">
        <ele>281</ele>
        <time>2025-08-28T07:30:53.000Z</time>
      </trkpt>
      <trkpt lat="44.43036" lon="1.02738">
        <ele>281</ele>
        <time>2025-08-28T07:31:03.000Z</time>
      </trkpt>
      <trkpt lat="44.43028" lon="1.02743">
        <ele>282</ele>
        <time>2025-08-28T07:31:15.000Z</time>
      </trkpt>
      <trkpt lat="44.43021" lon="1.02738">
        <ele>282</ele>
        <time>2025-08-28T07:32:20.000Z</time>
      </trkpt>
      <trkpt lat="44.43013" lon="1.02736">
        <ele>283</ele>
        <time>2025-08-28T07:32:31.000Z</time>
      </trkpt>
      <trkpt lat="44.43004" lon="1.02736">
        <ele>284</ele>
        <time>2025-08-28T07:32:38.000Z</time>
      </trkpt>
      <trkpt lat="44.42996" lon="1.02735">
        <ele>284</ele>
        <time>2025-08-28T07:33:12.000Z</time>
      </trkpt>
      <trkpt lat="44.42988" lon="1.02739">
        <ele>284</ele>
        <time>2025-08-28T07:33:18.000Z</time>
      </trkpt>
      <trkpt lat="44.42979" lon="1.02737">
        <ele>284</ele>
        <time>2025-08-28T07:33:25.000Z</time>
      </trkpt>
      <trkpt lat="44.4297" lon="1.02737">
        <ele>284</ele>
        <time>2025-08-28T07:33:35.000Z</time>
      </trkpt>
      <trkpt lat="44.42961" lon="1.02739">
        <ele>285</ele>
        <time>2025-08-28T07:33:43.000Z</time>
      </trkpt>
      <trkpt lat="44.42951" lon="1.0274">
        <ele>285</ele>
        <time>2025-08-28T07:33:52.000Z</time>
      </trkpt>
      <trkpt lat="44.42942" lon="1.02745">
        <ele>285</ele>
        <time>2025-08-28T07:34:01.000Z</time>
      </trkpt>
      <trkpt lat="44.42933" lon="1.02747">
        <ele>286</ele>
        <time>2025-08-28T07:34:08.000Z</time>
      </trkpt>
      <trkpt lat="44.42924" lon="1.02748">
        <ele>286</ele>
        <time>2025-08-28T07:34:24.000Z</time>
      </trkpt>
      <trkpt lat="44.42915" lon="1.02756">
        <ele>286</ele>
        <time>2025-08-28T07:34:43.000Z</time>
      </trkpt>
      <trkpt lat="44.42906" lon="1.02762">
        <ele>286</ele>
        <time>2025-08-28T07:34:50.000Z</time>
      </trkpt>
      <trkpt lat="44.42898" lon="1.02768">
        <ele>286</ele>
        <time>2025-08-28T07:34:58.000Z</time>
      </trkpt>
      <trkpt lat="44.4289" lon="1.02774">
        <ele>285</ele>
        <time>2025-08-28T07:35:07.000Z</time>
      </trkpt>
      <trkpt lat="44.42882" lon="1.0278">
        <ele>285</ele>
        <time>2025-08-28T07:35:12.000Z</time>
      </trkpt>
      <trkpt lat="44.42874" lon="1.02786">
        <ele>284</ele>
        <time>2025-08-28T07:35:20.000Z</time>
      </trkpt>
      <trkpt lat="44.42865" lon="1.02793">
        <ele>283</ele>
        <time>2025-08-28T07:35:30.000Z</time>
      </trkpt>
      <trkpt lat="44.42858" lon="1.02801">
        <ele>283</ele>
        <time>2025-08-28T07:35:41.000Z</time>
      </trkpt>
      <trkpt lat="44.42858" lon="1.02814">
        <ele>282</ele>
        <time>2025-08-28T07:35:49.000Z</time>
      </trkpt>
      <trkpt lat="44.42859" lon="1.02827">
        <ele>282</ele>
        <time>2025-08-28T07:35:56.000Z</time>
      </trkpt>
      <trkpt lat="44.42861" lon="1.02839">
        <ele>282</ele>
        <time>2025-08-28T07:36:04.000Z</time>
      </trkpt>
      <trkpt lat="44.4286" lon="1.02852">
        <ele>282</ele>
        <time>2025-08-28T07:36:15.000Z</time>
      </trkpt>
      <trkpt lat="44.42859" lon="1.02865">
        <ele>282</ele>
        <time>2025-08-28T07:36:44.000Z</time>
      </trkpt>
      <trkpt lat="44.4286" lon="1.02879">
        <ele>283</ele>
        <time>2025-08-28T07:36:57.000Z</time>
      </trkpt>
      <trkpt lat="44.42865" lon="1.02891">
        <ele>283</ele>
        <time>2025-08-28T07:37:08.000Z</time>
      </trkpt>
      <trkpt lat="44.42868" lon="1.02905">
        <ele>283</ele>
        <time>2025-08-28T07:37:17.000Z</time>
      </trkpt>
      <trkpt lat="44.42866" lon="1.02918">
        <ele>282</ele>
        <time>2025-08-28T07:37:24.000Z</time>
      </trkpt>
      <trkpt lat="44.42865" lon="1.02931">
        <ele>282</ele>
        <time>2025-08-28T07:37:32.000Z</time>
      </trkpt>
      <trkpt lat="44.42867" lon="1.02945">
        <ele>282</ele>
        <time>2025-08-28T07:37:39.000Z</time>
      </trkpt>
      <trkpt lat="44.42868" lon="1.02959">
        <ele>282</ele>
        <time>2025-08-28T07:37:48.000Z</time>
      </trkpt>
      <trkpt lat="44.42871" lon="1.02971">
        <ele>281</ele>
        <time>2025-08-28T07:37:54.000Z</time>
      </trkpt>
      <trkpt lat="44.42873" lon="1.02984">
        <ele>281</ele>
        <time>2025-08-28T07:38:02.000Z</time>
      </trkpt>
      <trkpt lat="44.42875" lon="1.02996">
        <ele>282</ele>
        <time>2025-08-28T07:38:08.000Z</time>
      </trkpt>
      <trkpt lat="44.42877" lon="1.03008">
        <ele>282</ele>
        <time>2025-08-28T07:38:16.000Z</time>
      </trkpt>
      <trkpt lat="44.42879" lon="1.03022">
        <ele>282</ele>
        <time>2025-08-28T07:38:25.000Z</time>
      </trkpt>
      <trkpt lat="44.42884" lon="1.0303">
        <ele>282</ele>
        <time>2025-08-28T07:38:35.000Z</time>
      </trkpt>
      <trkpt lat="44.42887" lon="1.03042">
        <ele>282</ele>
        <time>2025-08-28T07:38:51.000Z</time>
      </trkpt>
      <trkpt lat="44.4289" lon="1.03054">
        <ele>282</ele>
        <time>2025-08-28T07:38:59.000Z</time>
      </trkpt>
      <trkpt lat="44.42891" lon="1.03069">
        <ele>282</ele>
        <time>2025-08-28T07:39:09.000Z</time>
      </trkpt>
      <trkpt lat="44.42893" lon="1.03083">
        <ele>282</ele>
        <time>2025-08-28T07:39:25.000Z</time>
      </trkpt>
      <trkpt lat="44.42895" lon="1.03096">
        <ele>282</ele>
        <time>2025-08-28T07:39:32.000Z</time>
      </trkpt>
      <trkpt lat="44.42895" lon="1.03109">
        <ele>282</ele>
        <time>2025-08-28T07:39:40.000Z</time>
      </trkpt>
      <trkpt lat="44.42896" lon="1.03124">
        <ele>282</ele>
        <time>2025-08-28T07:39:51.000Z</time>
      </trkpt>
      <trkpt lat="44.42898" lon="1.03138">
        <ele>282</ele>
        <time>2025-08-28T07:40:47.000Z</time>
      </trkpt>
      <trkpt lat="44.42898" lon="1.03152">
        <ele>282</ele>
        <time>2025-08-28T07:40:54.000Z</time>
      </trkpt>
      <trkpt lat="44.42897" lon="1.03167">
        <ele>283</ele>
        <time>2025-08-28T07:41:03.000Z</time>
      </trkpt>
      <trkpt lat="44.42895" lon="1.03182">
        <ele>283</ele>
        <time>2025-08-28T07:41:11.000Z</time>
      </trkpt>
      <trkpt lat="44.42893" lon="1.03197">
        <ele>283</ele>
        <time>2025-08-28T07:41:20.000Z</time>
      </trkpt>
      <trkpt lat="44.42892" lon="1.03211">
        <ele>284</ele>
        <time>2025-08-28T07:41:28.000Z</time>
      </trkpt>
      <trkpt lat="44.42891" lon="1.03224">
        <ele>285</ele>
        <time>2025-08-28T07:41:37.000Z</time>
      </trkpt>
      <trkpt lat="44.42892" lon="1.03239">
        <ele>286</ele>
        <time>2025-08-28T07:41:45.000Z</time>
      </trkpt>
      <trkpt lat="44.42891" lon="1.03253">
        <ele>286</ele>
        <time>2025-08-28T07:41:53.000Z</time>
      </trkpt>
      <trkpt lat="44.42891" lon="1.03267">
        <ele>287</ele>
        <time>2025-08-28T07:42:01.000Z</time>
      </trkpt>
      <trkpt lat="44.42892" lon="1.03279">
        <ele>287</ele>
        <time>2025-08-28T07:42:07.000Z</time>
      </trkpt>
      <trkpt lat="44.42892" lon="1.03292">
        <ele>287</ele>
        <time>2025-08-28T07:42:13.000Z</time>
      </trkpt>
      <trkpt lat="44.42893" lon="1.03305">
        <ele>287</ele>
        <time>2025-08-28T07:42:54.000Z</time>
      </trkpt>
      <trkpt lat="44.42891" lon="1.03318">
        <ele>287</ele>
        <time>2025-08-28T07:43:02.000Z</time>
      </trkpt>
      <trkpt lat="44.42888" lon="1.03332">
        <ele>286</ele>
        <time>2025-08-28T07:43:33.000Z</time>
      </trkpt>
      <trkpt lat="44.42886" lon="1.03345">
        <ele>286</ele>
        <time>2025-08-28T07:43:41.000Z</time>
      </trkpt>
      <trkpt lat="44.42884" lon="1.0336">
        <ele>286</ele>
        <time>2025-08-28T07:43:50.000Z</time>
      </trkpt>
      <trkpt lat="44.42883" lon="1.03375">
        <ele>286</ele>
        <time>2025-08-28T07:44:01.000Z</time>
      </trkpt>
      <trkpt lat="44.42882" lon="1.0339">
        <ele>285</ele>
        <time>2025-08-28T07:44:11.000Z</time>
      </trkpt>
      <trkpt lat="44.42881" lon="1.03405">
        <ele>285</ele>
        <time>2025-08-28T07:44:19.000Z</time>
      </trkpt>
      <trkpt lat="44.42881" lon="1.03419">
        <ele>285</ele>
        <time>2025-08-28T07:44:49.000Z</time>
      </trkpt>
      <trkpt lat="44.42877" lon="1.0343">
        <ele>285</ele>
        <time>2025-08-28T07:44:54.000Z</time>
      </trkpt>
      <trkpt lat="44.42873" lon="1.03443">
        <ele>285</ele>
        <time>2025-08-28T07:45:03.000Z</time>
      </trkpt>
      <trkpt lat="44.42868" lon="1.03456">
        <ele>285</ele>
        <time>2025-08-28T07:45:10.000Z</time>
      </trkpt>
      <trkpt lat="44.42864" lon="1.03469">
        <ele>284</ele>
        <time>2025-08-28T07:45:21.000Z</time>
      </trkpt>
      <trkpt lat="44.42861" lon="1.03481">
        <ele>284</ele>
        <time>2025-08-28T07:45:45.000Z</time>
      </trkpt>
      <trkpt lat="44.42856" lon="1.03492">
        <ele>284</ele>
        <time>2025-08-28T07:45:51.000Z</time>
      </trkpt>
      <trkpt lat="44.42854" lon="1.03506">
        <ele>284</ele>
        <time>2025-08-28T07:45:59.000Z</time>
      </trkpt>
      <trkpt lat="44.42853" lon="1.03519">
        <ele>284</ele>
        <time>2025-08-28T07:46:07.000Z</time>
      </trkpt>
      <trkpt lat="44.42848" lon="1.0353">
        <ele>284</ele>
        <time>2025-08-28T07:46:12.000Z</time>
      </trkpt>
      <trkpt lat="44.42843" lon="1.03542">
        <ele>285</ele>
        <time>2025-08-28T07:46:20.000Z</time>
      </trkpt>
      <trkpt lat="44.42841" lon="1.03555">
        <ele>285</ele>
        <time>2025-08-28T07:46:38.000Z</time>
      </trkpt>
      <trkpt lat="44.4284" lon="1.03568">
        <ele>285</ele>
        <time>2025-08-28T07:46:45.000Z</time>
      </trkpt>
      <trkpt lat="44.42835" lon="1.0358">
        <ele>285</ele>
        <time>2025-08-28T07:46:53.000Z</time>
      </trkpt>
      <trkpt lat="44.42831" lon="1.03594">
        <ele>285</ele>
        <time>2025-08-28T07:47:01.000Z</time>
      </trkpt>
      <trkpt lat="44.42828" lon="1.03609">
        <ele>285</ele>
        <time>2025-08-28T07:47:08.000Z</time>
      </trkpt>
      <trkpt lat="44.42826" lon="1.03622">
        <ele>285</ele>
        <time>2025-08-28T07:47:17.000Z</time>
      </trkpt>
      <trkpt lat="44.42824" lon="1.03634">
        <ele>285</ele>
        <time>2025-08-28T07:47:23.000Z</time>
      </trkpt>
      <trkpt lat="44.4282" lon="1.03647">
        <ele>285</ele>
        <time>2025-08-28T07:47:31.000Z</time>
      </trkpt>
      <trkpt lat="44.42816" lon="1.03659">
        <ele>285</ele>
        <time>2025-08-28T07:47:38.000Z</time>
      </trkpt>
      <trkpt lat="44.42811" lon="1.03671">
        <ele>285</ele>
        <time>2025-08-28T07:47:47.000Z</time>
      </trkpt>
      <trkpt lat="44.42804" lon="1.03679">
        <ele>285</ele>
        <time>2025-08-28T07:47:54.000Z</time>
      </trkpt>
      <trkpt lat="44.42796" lon="1.03676">
        <ele>284</ele>
        <time>2025-08-28T07:48:35.000Z</time>
      </trkpt>
      <trkpt lat="44.42787" lon="1.03669">
        <ele>283</ele>
        <time>2025-08-28T07:48:46.000Z</time>
      </trkpt>
      <trkpt lat="44.42778" lon="1.03668">
        <ele>283</ele>
        <time>2025-08-28T07:49:03.000Z</time>
      </trkpt>
      <trkpt lat="44.4277" lon="1.03663">
        <ele>283</ele>
        <time>2025-08-28T07:49:13.000Z</time>
      </trkpt>
      <trkpt lat="44.42762" lon="1.03658">
        <ele>283</ele>
        <time>2025-08-28T07:49:21.000Z</time>
      </trkpt>
      <trkpt lat="44.42753" lon="1.03653">
        <ele>284</ele>
        <time>2025-08-28T07:49:31.000Z</time>
      </trkpt>
      <trkpt lat="44.42742" lon="1.0365">
        <ele>283</ele>
        <time>2025-08-28T07:49:41.000Z</time>
      </trkpt>
      <trkpt lat="44.42732" lon="1.03647">
        <ele>283</ele>
        <time>2025-08-28T07:49:49.000Z</time>
      </trkpt>
      <trkpt lat="44.42723" lon="1.03644">
        <ele>282</ele>
        <time>2025-08-28T07:49:56.000Z</time>
      </trkpt>
      <trkpt lat="44.42714" lon="1.03644">
        <ele>282</ele>
        <time>2025-08-28T07:50:09.000Z</time>
      </trkpt>
      <trkpt lat="44.42704" lon="1.0364">
        <ele>281</ele>
        <time>2025-08-28T07:50:53.000Z</time>
      </trkpt>
      <trkpt lat="44.42695" lon="1.03636">
        <ele>281</ele>
        <time>2025-08-28T07:51:05.000Z</time>
      </trkpt>
      <trkpt lat="44.42687" lon="1.03633">
        <ele>281</ele>
        <time>2025-08-28T07:51:14.000Z</time>
      </trkpt>
      <trkpt lat="44.42679" lon="1.03627">
        <ele>281</ele>
        <time>2025-08-28T07:51:23.000Z</time>
      </trkpt>
      <trkpt lat="44.42669" lon="1.03624">
        <ele>281</ele>
        <time>2025-08-28T07:51:31.000Z</time>
      </trkpt>
      <trkpt lat="44.42661" lon="1.03621">
        <ele>281</ele>
        <time>2025-08-28T07:51:39.000Z</time>
      </trkpt>
      <trkpt lat="44.42652" lon="1.03617">
        <ele>281</ele>
        <time>2025-08-28T07:51:48.000Z</time>
      </trkpt>
      <trkpt lat="44.42642" lon="1.03611">
        <ele>282</ele>
        <time>2025-08-28T07:51:57.000Z</time>
      </trkpt>
      <trkpt lat="44.42633" lon="1.03609">
        <ele>282</ele>
        <time>2025-08-28T07:52:03.000Z</time>
      </trkpt>
      <trkpt lat="44.42623" lon="1.03607">
        <ele>282</ele>
        <time>2025-08-28T07:52:13.000Z</time>
      </trkpt>
      <trkpt lat="44.42613" lon="1.03605">
        <ele>282</ele>
        <time>2025-08-28T07:52:23.000Z</time>
      </trkpt>
      <trkpt lat="44.42604" lon="1.03602">
        <ele>282</ele>
        <time>2025-08-28T07:52:33.000Z</time>
      </trkpt>
      <trkpt lat="44.42596" lon="1.03596">
        <ele>282</ele>
        <time>2025-08-28T07:52:42.000Z</time>
      </trkpt>
      <trkpt lat="44.42588" lon="1.03591">
        <ele>282</ele>
        <time>2025-08-28T07:52:49.000Z</time>
      </trkpt>
      <trkpt lat="44.4258" lon="1.03586">
        <ele>282</ele>
        <time>2025-08-28T07:53:00.000Z</time>
      </trkpt>
      <trkpt lat="44.42571" lon="1.03582">
        <ele>282</ele>
        <time>2025-08-28T07:53:08.000Z</time>
      </trkpt>
      <trkpt lat="44.42563" lon="1.03578">
        <ele>282</ele>
        <time>2025-08-28T07:53:14.000Z</time>
      </trkpt>
      <trkpt lat="44.42554" lon="1.03577">
        <ele>282</ele>
        <time>2025-08-28T07:53:21.000Z</time>
      </trkpt>
      <trkpt lat="44.42545" lon="1.0358">
        <ele>282</ele>
        <time>2025-08-28T07:53:29.000Z</time>
      </trkpt>
      <trkpt lat="44.42536" lon="1.03583">
        <ele>281</ele>
        <time>2025-08-28T07:53:40.000Z</time>
      </trkpt>
      <trkpt lat="44.42527" lon="1.03583">
        <ele>281</ele>
        <time>2025-08-28T07:53:48.000Z</time>
      </trkpt>
      <trkpt lat="44.42517" lon="1.0358">
        <ele>280</ele>
        <time>2025-08-28T07:53:58.000Z</time>
      </trkpt>
      <trkpt lat="44.42508" lon="1.03577">
        <ele>280</ele>
        <time>2025-08-28T07:54:06.000Z</time>
      </trkpt>
      <trkpt lat="44.425" lon="1.03571">
        <ele>280</ele>
        <time>2025-08-28T07:54:14.000Z</time>
      </trkpt>
      <trkpt lat="44.42492" lon="1.03562">
        <ele>281</ele>
        <time>2025-08-28T07:54:25.000Z</time>
      </trkpt>
      <trkpt lat="44.42483" lon="1.03556">
        <ele>281</ele>
        <time>2025-08-28T07:54:36.000Z</time>
      </trkpt>
      <trkpt lat="44.42475" lon="1.03554">
        <ele>282</ele>
        <time>2025-08-28T07:54:46.000Z</time>
      </trkpt>
      <trkpt lat="44.42466" lon="1.03553">
        <ele>283</ele>
        <time>2025-08-28T07:54:56.000Z</time>
      </trkpt>
      <trkpt lat="44.42455" lon="1.03552">
        <ele>283</ele>
        <time>2025-08-28T07:55:06.000Z</time>
      </trkpt>
      <trkpt lat="44.42444" lon="1.03548">
        <ele>284</ele>
        <time>2025-08-28T07:55:16.000Z</time>
      </trkpt>
      <trkpt lat="44.42435" lon="1.03546">
        <ele>285</ele>
        <time>2025-08-28T07:55:30.000Z</time>
      </trkpt>
      <trkpt lat="44.42428" lon="1.03541">
        <ele>285</ele>
        <time>2025-08-28T07:56:08.000Z</time>
      </trkpt>
      <trkpt lat="44.42422" lon="1.03549">
        <ele>285</ele>
        <time>2025-08-28T07:57:24.000Z</time>
      </trkpt>
      <trkpt lat="44.42417" lon="1.0356">
        <ele>285</ele>
        <time>2025-08-28T07:57:32.000Z</time>
      </trkpt>
      <trkpt lat="44.42411" lon="1.0357">
        <ele>285</ele>
        <time>2025-08-28T07:57:42.000Z</time>
      </trkpt>
      <trkpt lat="44.42402" lon="1.03575">
        <ele>285</ele>
        <time>2025-08-28T07:57:52.000Z</time>
      </trkpt>
      <trkpt lat="44.42394" lon="1.03578">
        <ele>285</ele>
        <time>2025-08-28T07:58:00.000Z</time>
      </trkpt>
      <trkpt lat="44.42385" lon="1.03581">
        <ele>285</ele>
        <time>2025-08-28T07:58:08.000Z</time>
      </trkpt>
      <trkpt lat="44.42376" lon="1.03583">
        <ele>285</ele>
        <time>2025-08-28T07:58:15.000Z</time>
      </trkpt>
      <trkpt lat="44.42366" lon="1.03584">
        <ele>285</ele>
        <time>2025-08-28T07:58:24.000Z</time>
      </trkpt>
      <trkpt lat="44.42356" lon="1.03583">
        <ele>285</ele>
        <time>2025-08-28T07:58:34.000Z</time>
      </trkpt>
      <trkpt lat="44.42348" lon="1.0358">
        <ele>285</ele>
        <time>2025-08-28T07:58:40.000Z</time>
      </trkpt>
      <trkpt lat="44.42339" lon="1.03579">
        <ele>285</ele>
        <time>2025-08-28T07:58:52.000Z</time>
      </trkpt>
      <trkpt lat="44.4233" lon="1.03579">
        <ele>284</ele>
        <time>2025-08-28T07:59:00.000Z</time>
      </trkpt>
      <trkpt lat="44.42321" lon="1.03579">
        <ele>284</ele>
        <time>2025-08-28T07:59:07.000Z</time>
      </trkpt>
      <trkpt lat="44.42314" lon="1.03585">
        <ele>284</ele>
        <time>2025-08-28T07:59:20.000Z</time>
      </trkpt>
      <trkpt lat="44.42306" lon="1.03581">
        <ele>284</ele>
        <time>2025-08-28T08:00:38.000Z</time>
      </trkpt>
      <trkpt lat="44.42297" lon="1.03579">
        <ele>284</ele>
        <time>2025-08-28T08:01:24.000Z</time>
      </trkpt>
      <trkpt lat="44.42288" lon="1.0358">
        <ele>284</ele>
        <time>2025-08-28T08:01:30.000Z</time>
      </trkpt>
      <trkpt lat="44.42279" lon="1.03579">
        <ele>284</ele>
        <time>2025-08-28T08:01:38.000Z</time>
      </trkpt>
      <trkpt lat="44.42269" lon="1.03578">
        <ele>284</ele>
        <time>2025-08-28T08:01:46.000Z</time>
      </trkpt>
      <trkpt lat="44.42259" lon="1.03579">
        <ele>283</ele>
        <time>2025-08-28T08:01:54.000Z</time>
      </trkpt>
      <trkpt lat="44.4225" lon="1.03579">
        <ele>283</ele>
        <time>2025-08-28T08:02:01.000Z</time>
      </trkpt>
      <trkpt lat="44.42241" lon="1.03579">
        <ele>283</ele>
        <time>2025-08-28T08:02:10.000Z</time>
      </trkpt>
      <trkpt lat="44.42231" lon="1.0358">
        <ele>283</ele>
        <time>2025-08-28T08:02:19.000Z</time>
      </trkpt>
      <trkpt lat="44.42221" lon="1.03582">
        <ele>283</ele>
        <time>2025-08-28T08:02:28.000Z</time>
      </trkpt>
      <trkpt lat="44.42211" lon="1.03586">
        <ele>284</ele>
        <time>2025-08-28T08:02:36.000Z</time>
      </trkpt>
      <trkpt lat="44.42201" lon="1.03592">
        <ele>285</ele>
        <time>2025-08-28T08:02:43.000Z</time>
      </trkpt>
      <trkpt lat="44.42193" lon="1.03598">
        <ele>286</ele>
        <time>2025-08-28T08:02:50.000Z</time>
      </trkpt>
      <trkpt lat="44.42185" lon="1.03605">
        <ele>286</ele>
        <time>2025-08-28T08:02:58.000Z</time>
      </trkpt>
      <trkpt lat="44.42176" lon="1.03613">
        <ele>287</ele>
        <time>2025-08-28T08:03:06.000Z</time>
      </trkpt>
      <trkpt lat="44.42169" lon="1.0362">
        <ele>287</ele>
        <time>2025-08-28T08:03:12.000Z</time>
      </trkpt>
      <trkpt lat="44.42162" lon="1.03628">
        <ele>287</ele>
        <time>2025-08-28T08:03:17.000Z</time>
      </trkpt>
      <trkpt lat="44.42155" lon="1.03636">
        <ele>288</ele>
        <time>2025-08-28T08:03:24.000Z</time>
      </trkpt>
      <trkpt lat="44.42149" lon="1.03647">
        <ele>288</ele>
        <time>2025-08-28T08:03:32.000Z</time>
      </trkpt>
      <trkpt lat="44.42141" lon="1.03656">
        <ele>288</ele>
        <time>2025-08-28T08:03:40.000Z</time>
      </trkpt>
      <trkpt lat="44.42134" lon="1.03664">
        <ele>288</ele>
        <time>2025-08-28T08:03:48.000Z</time>
      </trkpt>
      <trkpt lat="44.42127" lon="1.03675">
        <ele>288</ele>
        <time>2025-08-28T08:03:55.000Z</time>
      </trkpt>
      <trkpt lat="44.4212" lon="1.03684">
        <ele>287</ele>
        <time>2025-08-28T08:04:04.000Z</time>
      </trkpt>
      <trkpt lat="44.42111" lon="1.0368">
        <ele>286</ele>
        <time>2025-08-28T08:04:14.000Z</time>
      </trkpt>
      <trkpt lat="44.42107" lon="1.03668">
        <ele>284</ele>
        <time>2025-08-28T08:04:24.000Z</time>
      </trkpt>
      <trkpt lat="44.42104" lon="1.03654">
        <ele>283</ele>
        <time>2025-08-28T08:04:37.000Z</time>
      </trkpt>
      <trkpt lat="44.42101" lon="1.03642">
        <ele>283</ele>
        <time>2025-08-28T08:04:48.000Z</time>
      </trkpt>
      <trkpt lat="44.42097" lon="1.03631">
        <ele>283</ele>
        <time>2025-08-28T08:04:58.000Z</time>
      </trkpt>
      <trkpt lat="44.42094" lon="1.03618">
        <ele>283</ele>
        <time>2025-08-28T08:05:07.000Z</time>
      </trkpt>
      <trkpt lat="44.42089" lon="1.03606">
        <ele>284</ele>
        <time>2025-08-28T08:05:16.000Z</time>
      </trkpt>
      <trkpt lat="44.42085" lon="1.03594">
        <ele>285</ele>
        <time>2025-08-28T08:05:23.000Z</time>
      </trkpt>
      <trkpt lat="44.42081" lon="1.03582">
        <ele>286</ele>
        <time>2025-08-28T08:05:30.000Z</time>
      </trkpt>
      <trkpt lat="44.42077" lon="1.03572">
        <ele>286</ele>
        <time>2025-08-28T08:05:40.000Z</time>
      </trkpt>
      <trkpt lat="44.42073" lon="1.03561">
        <ele>286</ele>
        <time>2025-08-28T08:06:00.000Z</time>
      </trkpt>
      <trkpt lat="44.42068" lon="1.0355">
        <ele>286</ele>
        <time>2025-08-28T08:06:13.000Z</time>
      </trkpt>
      <trkpt lat="44.42064" lon="1.03538">
        <ele>286</ele>
        <time>2025-08-28T08:06:24.000Z</time>
      </trkpt>
      <trkpt lat="44.42058" lon="1.03526">
        <ele>285</ele>
        <time>2025-08-28T08:06:31.000Z</time>
      </trkpt>
      <trkpt lat="44.42053" lon="1.03513">
        <ele>284</ele>
        <time>2025-08-28T08:06:57.000Z</time>
      </trkpt>
      <trkpt lat="44.42047" lon="1.03502">
        <ele>283</ele>
        <time>2025-08-28T08:07:10.000Z</time>
      </trkpt>
      <trkpt lat="44.42043" lon="1.0349">
        <ele>282</ele>
        <time>2025-08-28T08:07:17.000Z</time>
      </trkpt>
      <trkpt lat="44.42037" lon="1.0348">
        <ele>281</ele>
        <time>2025-08-28T08:07:25.000Z</time>
      </trkpt>
      <trkpt lat="44.42032" lon="1.03469">
        <ele>280</ele>
        <time>2025-08-28T08:07:37.000Z</time>
      </trkpt>
      <trkpt lat="44.42026" lon="1.03458">
        <ele>280</ele>
        <time>2025-08-28T08:07:48.000Z</time>
      </trkpt>
      <trkpt lat="44.4202" lon="1.03447">
        <ele>280</ele>
        <time>2025-08-28T08:07:56.000Z</time>
      </trkpt>
      <trkpt lat="44.42013" lon="1.03436">
        <ele>280</ele>
        <time>2025-08-28T08:08:08.000Z</time>
      </trkpt>
      <trkpt lat="44.42007" lon="1.03427">
        <ele>280</ele>
        <time>2025-08-28T08:08:13.000Z</time>
      </trkpt>
      <trkpt lat="44.42" lon="1.03419">
        <ele>279</ele>
        <time>2025-08-28T08:08:20.000Z</time>
      </trkpt>
      <trkpt lat="44.41993" lon="1.0341">
        <ele>279</ele>
        <time>2025-08-28T08:08:28.000Z</time>
      </trkpt>
      <trkpt lat="44.41986" lon="1.03403">
        <ele>278</ele>
        <time>2025-08-28T08:08:40.000Z</time>
      </trkpt>
      <trkpt lat="44.41978" lon="1.03395">
        <ele>277</ele>
        <time>2025-08-28T08:08:50.000Z</time>
      </trkpt>
      <trkpt lat="44.41971" lon="1.03384">
        <ele>277</ele>
        <time>2025-08-28T08:08:56.000Z</time>
      </trkpt>
      <trkpt lat="44.41963" lon="1.03374">
        <ele>276</ele>
        <time>2025-08-28T08:09:03.000Z</time>
      </trkpt>
      <trkpt lat="44.41956" lon="1.03364">
        <ele>275</ele>
        <time>2025-08-28T08:09:11.000Z</time>
      </trkpt>
      <trkpt lat="44.41949" lon="1.03355">
        <ele>274</ele>
        <time>2025-08-28T08:09:19.000Z</time>
      </trkpt>
      <trkpt lat="44.4194" lon="1.03349">
        <ele>274</ele>
        <time>2025-08-28T08:09:26.000Z</time>
      </trkpt>
      <trkpt lat="44.41932" lon="1.0334">
        <ele>274</ele>
        <time>2025-08-28T08:09:35.000Z</time>
      </trkpt>
      <trkpt lat="44.41926" lon="1.0333">
        <ele>274</ele>
        <time>2025-08-28T08:09:43.000Z</time>
      </trkpt>
      <trkpt lat="44.41919" lon="1.0332">
        <ele>274</ele>
        <time>2025-08-28T08:09:50.000Z</time>
      </trkpt>
      <trkpt lat="44.41911" lon="1.03313">
        <ele>275</ele>
        <time>2025-08-28T08:10:01.000Z</time>
      </trkpt>
      <trkpt lat="44.41904" lon="1.03303">
        <ele>275</ele>
        <time>2025-08-28T08:10:09.000Z</time>
      </trkpt>
      <trkpt lat="44.41897" lon="1.03294">
        <ele>275</ele>
        <time>2025-08-28T08:10:19.000Z</time>
      </trkpt>
      <trkpt lat="44.4189" lon="1.03284">
        <ele>276</ele>
        <time>2025-08-28T08:10:29.000Z</time>
      </trkpt>
      <trkpt lat="44.41884" lon="1.03274">
        <ele>277</ele>
        <time>2025-08-28T08:10:37.000Z</time>
      </trkpt>
      <trkpt lat="44.41881" lon="1.03261">
        <ele>277</ele>
        <time>2025-08-28T08:10:45.000Z</time>
      </trkpt>
      <trkpt lat="44.41879" lon="1.03248">
        <ele>276</ele>
        <time>2025-08-28T08:10:52.000Z</time>
      </trkpt>
      <trkpt lat="44.41878" lon="1.03234">
        <ele>275</ele>
        <time>2025-08-28T08:11:01.000Z</time>
      </trkpt>
      <trkpt lat="44.41874" lon="1.03223">
        <ele>275</ele>
        <time>2025-08-28T08:11:09.000Z</time>
      </trkpt>
      <trkpt lat="44.41869" lon="1.03212">
        <ele>275</ele>
        <time>2025-08-28T08:11:19.000Z</time>
      </trkpt>
      <trkpt lat="44.41867" lon="1.03198">
        <ele>275</ele>
        <time>2025-08-28T08:11:30.000Z</time>
      </trkpt>
      <trkpt lat="44.41865" lon="1.03186">
        <ele>275</ele>
        <time>2025-08-28T08:11:40.000Z</time>
      </trkpt>
      <trkpt lat="44.41864" lon="1.03174">
        <ele>274</ele>
        <time>2025-08-28T08:11:51.000Z</time>
      </trkpt>
      <trkpt lat="44.41866" lon="1.03161">
        <ele>273</ele>
        <time>2025-08-28T08:12:01.000Z</time>
      </trkpt>
      <trkpt lat="44.41864" lon="1.03149">
        <ele>272</ele>
        <time>2025-08-28T08:12:11.000Z</time>
      </trkpt>
      <trkpt lat="44.41859" lon="1.03139">
        <ele>271</ele>
        <time>2025-08-28T08:12:20.000Z</time>
      </trkpt>
      <trkpt lat="44.41854" lon="1.03128">
        <ele>271</ele>
        <time>2025-08-28T08:12:32.000Z</time>
      </trkpt>
      <trkpt lat="44.4185" lon="1.03117">
        <ele>271</ele>
        <time>2025-08-28T08:12:40.000Z</time>
      </trkpt>
      <trkpt lat="44.41843" lon="1.03108">
        <ele>270</ele>
        <time>2025-08-28T08:12:46.000Z</time>
      </trkpt>
      <trkpt lat="44.41839" lon="1.03097">
        <ele>270</ele>
        <time>2025-08-28T08:12:53.000Z</time>
      </trkpt>
      <trkpt lat="44.41836" lon="1.03085">
        <ele>270</ele>
        <time>2025-08-28T08:13:05.000Z</time>
      </trkpt>
      <trkpt lat="44.41828" lon="1.03068">
        <ele>269</ele>
        <time>2025-08-28T08:13:27.000Z</time>
      </trkpt>
      <trkpt lat="44.41821" lon="1.03056">
        <ele>268</ele>
        <time>2025-08-28T08:13:32.000Z</time>
      </trkpt>
      <trkpt lat="44.41818" lon="1.03043">
        <ele>268</ele>
        <time>2025-08-28T08:13:42.000Z</time>
      </trkpt>
      <trkpt lat="44.41812" lon="1.03034">
        <ele>267</ele>
        <time>2025-08-28T08:13:50.000Z</time>
      </trkpt>
      <trkpt lat="44.41806" lon="1.03022">
        <ele>266</ele>
        <time>2025-08-28T08:13:58.000Z</time>
      </trkpt>
      <trkpt lat="44.41801" lon="1.0301">
        <ele>265</ele>
        <time>2025-08-28T08:14:28.000Z</time>
      </trkpt>
      <trkpt lat="44.41796" lon="1.02999">
        <ele>265</ele>
        <time>2025-08-28T08:14:34.000Z</time>
      </trkpt>
      <trkpt lat="44.41789" lon="1.02991">
        <ele>264</ele>
        <time>2025-08-28T08:14:42.000Z</time>
      </trkpt>
      <trkpt lat="44.41783" lon="1.02982">
        <ele>264</ele>
        <time>2025-08-28T08:14:54.000Z</time>
      </trkpt>
      <trkpt lat="44.41776" lon="1.02973">
        <ele>264</ele>
        <time>2025-08-28T08:15:01.000Z</time>
      </trkpt>
      <trkpt lat="44.4177" lon="1.02961">
        <ele>264</ele>
        <time>2025-08-28T08:15:12.000Z</time>
      </trkpt>
      <trkpt lat="44.41764" lon="1.0295">
        <ele>264</ele>
        <time>2025-08-28T08:15:21.000Z</time>
      </trkpt>
      <trkpt lat="44.4176" lon="1.02939">
        <ele>264</ele>
        <time>2025-08-28T08:15:30.000Z</time>
      </trkpt>
      <trkpt lat="44.41756" lon="1.02928">
        <ele>264</ele>
        <time>2025-08-28T08:15:38.000Z</time>
      </trkpt>
      <trkpt lat="44.4175" lon="1.02918">
        <ele>264</ele>
        <time>2025-08-28T08:15:44.000Z</time>
      </trkpt>
      <trkpt lat="44.41744" lon="1.02909">
        <ele>265</ele>
        <time>2025-08-28T08:15:53.000Z</time>
      </trkpt>
      <trkpt lat="44.41736" lon="1.02902">
        <ele>265</ele>
        <time>2025-08-28T08:16:03.000Z</time>
      </trkpt>
      <trkpt lat="44.41729" lon="1.02893">
        <ele>266</ele>
        <time>2025-08-28T08:16:12.000Z</time>
      </trkpt>
      <trkpt lat="44.41721" lon="1.02883">
        <ele>267</ele>
        <time>2025-08-28T08:16:23.000Z</time>
      </trkpt>
      <trkpt lat="44.41714" lon="1.02873">
        <ele>267</ele>
        <time>2025-08-28T08:16:31.000Z</time>
      </trkpt>
      <trkpt lat="44.41707" lon="1.02864">
        <ele>268</ele>
        <time>2025-08-28T08:16:40.000Z</time>
      </trkpt>
      <trkpt lat="44.41701" lon="1.02855">
        <ele>269</ele>
        <time>2025-08-28T08:17:03.000Z</time>
      </trkpt>
      <trkpt lat="44.41696" lon="1.02843">
        <ele>269</ele>
        <time>2025-08-28T08:17:11.000Z</time>
      </trkpt>
      <trkpt lat="44.4169" lon="1.02832">
        <ele>269</ele>
        <time>2025-08-28T08:17:19.000Z</time>
      </trkpt>
      <trkpt lat="44.41683" lon="1.02824">
        <ele>269</ele>
        <time>2025-08-28T08:17:25.000Z</time>
      </trkpt>
      <trkpt lat="44.41675" lon="1.02817">
        <ele>268</ele>
        <time>2025-08-28T08:17:35.000Z</time>
      </trkpt>
      <trkpt lat="44.41667" lon="1.02809">
        <ele>268</ele>
        <time>2025-08-28T08:17:44.000Z</time>
      </trkpt>
      <trkpt lat="44.41661" lon="1.02799">
        <ele>267</ele>
        <time>2025-08-28T08:17:57.000Z</time>
      </trkpt>
      <trkpt lat="44.41655" lon="1.02788">
        <ele>267</ele>
        <time>2025-08-28T08:18:07.000Z</time>
      </trkpt>
      <trkpt lat="44.41649" lon="1.02777">
        <ele>266</ele>
        <time>2025-08-28T08:18:15.000Z</time>
      </trkpt>
      <trkpt lat="44.41641" lon="1.02768">
        <ele>266</ele>
        <time>2025-08-28T08:18:22.000Z</time>
      </trkpt>
      <trkpt lat="44.41633" lon="1.02759">
        <ele>266</ele>
        <time>2025-08-28T08:18:31.000Z</time>
      </trkpt>
      <trkpt lat="44.41628" lon="1.02748">
        <ele>266</ele>
        <time>2025-08-28T08:18:41.000Z</time>
      </trkpt>
      <trkpt lat="44.41624" lon="1.02736">
        <ele>266</ele>
        <time>2025-08-28T08:19:29.000Z</time>
      </trkpt>
      <trkpt lat="44.41619" lon="1.02725">
        <ele>265</ele>
        <time>2025-08-28T08:20:03.000Z</time>
      </trkpt>
      <trkpt lat="44.41611" lon="1.02717">
        <ele>265</ele>
        <time>2025-08-28T08:20:12.000Z</time>
      </trkpt>
      <trkpt lat="44.41606" lon="1.02706">
        <ele>265</ele>
        <time>2025-08-28T08:20:22.000Z</time>
      </trkpt>
      <trkpt lat="44.416" lon="1.02695">
        <ele>265</ele>
        <time>2025-08-28T08:20:32.000Z</time>
      </trkpt>
      <trkpt lat="44.41594" lon="1.02684">
        <ele>265</ele>
        <time>2025-08-28T08:20:41.000Z</time>
      </trkpt>
      <trkpt lat="44.41586" lon="1.02678">
        <ele>264</ele>
        <time>2025-08-28T08:20:51.000Z</time>
      </trkpt>
      <trkpt lat="44.41578" lon="1.02672">
        <ele>263</ele>
        <time>2025-08-28T08:21:01.000Z</time>
      </trkpt>
      <trkpt lat="44.4157" lon="1.02665">
        <ele>262</ele>
        <time>2025-08-28T08:21:09.000Z</time>
      </trkpt>
      <trkpt lat="44.41561" lon="1.02661">
        <ele>261</ele>
        <time>2025-08-28T08:21:19.000Z</time>
      </trkpt>
      <trkpt lat="44.41552" lon="1.02653">
        <ele>260</ele>
        <time>2025-08-28T08:21:29.000Z</time>
      </trkpt>
      <trkpt lat="44.41543" lon="1.02647">
        <ele>260</ele>
        <time>2025-08-28T08:21:38.000Z</time>
      </trkpt>
      <trkpt lat="44.41534" lon="1.02641">
        <ele>258</ele>
        <time>2025-08-28T08:21:52.000Z</time>
      </trkpt>
      <trkpt lat="44.41528" lon="1.02633">
        <ele>257</ele>
        <time>2025-08-28T08:22:00.000Z</time>
      </trkpt>
      <trkpt lat="44.41521" lon="1.02621">
        <ele>256</ele>
        <time>2025-08-28T08:22:19.000Z</time>
      </trkpt>
      <trkpt lat="44.41518" lon="1.02608">
        <ele>255</ele>
        <time>2025-08-28T08:22:29.000Z</time>
      </trkpt>
      <trkpt lat="44.41515" lon="1.02595">
        <ele>255</ele>
        <time>2025-08-28T08:22:38.000Z</time>
      </trkpt>
      <trkpt lat="44.41511" lon="1.02582">
        <ele>255</ele>
        <time>2025-08-28T08:22:48.000Z</time>
      </trkpt>
      <trkpt lat="44.41504" lon="1.02571">
        <ele>255</ele>
        <time>2025-08-28T08:22:58.000Z</time>
      </trkpt>
      <trkpt lat="44.41498" lon="1.02562">
        <ele>254</ele>
        <time>2025-08-28T08:23:06.000Z</time>
      </trkpt>
      <trkpt lat="44.41492" lon="1.02552">
        <ele>254</ele>
        <time>2025-08-28T08:23:17.000Z</time>
      </trkpt>
      <trkpt lat="44.41485" lon="1.02543">
        <ele>253</ele>
        <time>2025-08-28T08:23:25.000Z</time>
      </trkpt>
      <trkpt lat="44.41481" lon="1.02532">
        <ele>252</ele>
        <time>2025-08-28T08:23:33.000Z</time>
      </trkpt>
      <trkpt lat="44.41475" lon="1.02522">
        <ele>252</ele>
        <time>2025-08-28T08:23:47.000Z</time>
      </trkpt>
      <trkpt lat="44.41467" lon="1.02511">
        <ele>252</ele>
        <time>2025-08-28T08:23:56.000Z</time>
      </trkpt>
      <trkpt lat="44.41461" lon="1.02502">
        <ele>251</ele>
        <time>2025-08-28T08:24:04.000Z</time>
      </trkpt>
      <trkpt lat="44.41455" lon="1.02492">
        <ele>249</ele>
        <time>2025-08-28T08:24:17.000Z</time>
      </trkpt>
      <trkpt lat="44.41449" lon="1.02482">
        <ele>247</ele>
        <time>2025-08-28T08:24:27.000Z</time>
      </trkpt>
      <trkpt lat="44.41443" lon="1.02471">
        <ele>246</ele>
        <time>2025-08-28T08:24:36.000Z</time>
      </trkpt>
      <trkpt lat="44.41439" lon="1.02462">
        <ele>245</ele>
        <time>2025-08-28T08:25:09.000Z</time>
      </trkpt>
      <trkpt lat="44.41442" lon="1.02454">
        <ele>245</ele>
        <time>2025-08-28T08:25:41.000Z</time>
      </trkpt>
      <trkpt lat="44.41436" lon="1.02448">
        <ele>244</ele>
        <time>2025-08-28T08:25:57.000Z</time>
      </trkpt>
      <trkpt lat="44.41429" lon="1.0244">
        <ele>242</ele>
        <time>2025-08-28T08:26:07.000Z</time>
      </trkpt>
      <trkpt lat="44.41423" lon="1.0243">
        <ele>241</ele>
        <time>2025-08-28T08:26:16.000Z</time>
      </trkpt>
      <trkpt lat="44.41418" lon="1.0242">
        <ele>240</ele>
        <time>2025-08-28T08:26:24.000Z</time>
      </trkpt>
      <trkpt lat="44.41412" lon="1.0241">
        <ele>239</ele>
        <time>2025-08-28T08:26:35.000Z</time>
      </trkpt>
      <trkpt lat="44.41407" lon="1.024">
        <ele>238</ele>
        <time>2025-08-28T08:26:46.000Z</time>
      </trkpt>
      <trkpt lat="44.41403" lon="1.02388">
        <ele>237</ele>
        <time>2025-08-28T08:26:55.000Z</time>
      </trkpt>
      <trkpt lat="44.41394" lon="1.02381">
        <ele>236</ele>
        <time>2025-08-28T08:27:07.000Z</time>
      </trkpt>
      <trkpt lat="44.41385" lon="1.02377">
        <ele>235</ele>
        <time>2025-08-28T08:27:15.000Z</time>
      </trkpt>
      <trkpt lat="44.41376" lon="1.02373">
        <ele>235</ele>
        <time>2025-08-28T08:27:23.000Z</time>
      </trkpt>
      <trkpt lat="44.41367" lon="1.02369">
        <ele>234</ele>
        <time>2025-08-28T08:27:33.000Z</time>
      </trkpt>
      <trkpt lat="44.41359" lon="1.02364">
        <ele>234</ele>
        <time>2025-08-28T08:27:41.000Z</time>
      </trkpt>
      <trkpt lat="44.41351" lon="1.02359">
        <ele>233</ele>
        <time>2025-08-28T08:27:49.000Z</time>
      </trkpt>
      <trkpt lat="44.41342" lon="1.02357">
        <ele>232</ele>
        <time>2025-08-28T08:27:59.000Z</time>
      </trkpt>
      <trkpt lat="44.41332" lon="1.02355">
        <ele>231</ele>
        <time>2025-08-28T08:28:07.000Z</time>
      </trkpt>
      <trkpt lat="44.41322" lon="1.02355">
        <ele>230</ele>
        <time>2025-08-28T08:28:17.000Z</time>
      </trkpt>
      <trkpt lat="44.41313" lon="1.02351">
        <ele>229</ele>
        <time>2025-08-28T08:28:27.000Z</time>
      </trkpt>
      <trkpt lat="44.41305" lon="1.02346">
        <ele>228</ele>
        <time>2025-08-28T08:28:40.000Z</time>
      </trkpt>
      <trkpt lat="44.41298" lon="1.02339">
        <ele>227</ele>
        <time>2025-08-28T08:28:53.000Z</time>
      </trkpt>
      <trkpt lat="44.41289" lon="1.0234">
        <ele>225</ele>
        <time>2025-08-28T08:29:10.000Z</time>
      </trkpt>
      <trkpt lat="44.41281" lon="1.02339">
        <ele>224</ele>
        <time>2025-08-28T08:29:32.000Z</time>
      </trkpt>
      <trkpt lat="44.41272" lon="1.02338">
        <ele>223</ele>
        <time>2025-08-28T08:29:48.000Z</time>
      </trkpt>
      <trkpt lat="44.41262" lon="1.02339">
        <ele>222</ele>
        <time>2025-08-28T08:30:04.000Z</time>
      </trkpt>
      <trkpt lat="44.41254" lon="1.0234">
        <ele>221</ele>
        <time>2025-08-28T08:30:26.000Z</time>
      </trkpt>
      <trkpt lat="44.41245" lon="1.02344">
        <ele>220</ele>
        <time>2025-08-28T08:30:43.000Z</time>
      </trkpt>
      <trkpt lat="44.41237" lon="1.02349">
        <ele>219</ele>
        <time>2025-08-28T08:30:57.000Z</time>
      </trkpt>
      <trkpt lat="44.41234" lon="1.0234">
        <ele>218</ele>
        <time>2025-08-28T08:32:50.000Z</time>
      </trkpt>
      <trkpt lat="44.41236" lon="1.02327">
        <ele>217</ele>
        <time>2025-08-28T08:33:03.000Z</time>
      </trkpt>
      <trkpt lat="44.41239" lon="1.02314">
        <ele>216</ele>
        <time>2025-08-28T08:33:15.000Z</time>
      </trkpt>
      <trkpt lat="44.41242" lon="1.02302">
        <ele>216</ele>
        <time>2025-08-28T08:33:24.000Z</time>
      </trkpt>
      <trkpt lat="44.41248" lon="1.0229">
        <ele>215</ele>
        <time>2025-08-28T08:33:34.000Z</time>
      </trkpt>
      <trkpt lat="44.41253" lon="1.02278">
        <ele>214</ele>
        <time>2025-08-28T08:33:44.000Z</time>
      </trkpt>
      <trkpt lat="44.41257" lon="1.02267">
        <ele>214</ele>
        <time>2025-08-28T08:33:52.000Z</time>
      </trkpt>
      <trkpt lat="44.41261" lon="1.02256">
        <ele>214</ele>
        <time>2025-08-28T08:34:02.000Z</time>
      </trkpt>
      <trkpt lat="44.41266" lon="1.02243">
        <ele>213</ele>
        <time>2025-08-28T08:34:12.000Z</time>
      </trkpt>
      <trkpt lat="44.41271" lon="1.02233">
        <ele>213</ele>
        <time>2025-08-28T08:34:22.000Z</time>
      </trkpt>
      <trkpt lat="44.41279" lon="1.02224">
        <ele>213</ele>
        <time>2025-08-28T08:34:30.000Z</time>
      </trkpt>
      <trkpt lat="44.41285" lon="1.02213">
        <ele>213</ele>
        <time>2025-08-28T08:34:40.000Z</time>
      </trkpt>
      <trkpt lat="44.41293" lon="1.02204">
        <ele>212</ele>
        <time>2025-08-28T08:34:50.000Z</time>
      </trkpt>
      <trkpt lat="44.41299" lon="1.02194">
        <ele>212</ele>
        <time>2025-08-28T08:34:58.000Z</time>
      </trkpt>
      <trkpt lat="44.41305" lon="1.02185">
        <ele>211</ele>
        <time>2025-08-28T08:35:06.000Z</time>
      </trkpt>
      <trkpt lat="44.4131" lon="1.02174">
        <ele>210</ele>
        <time>2025-08-28T08:35:14.000Z</time>
      </trkpt>
      <trkpt lat="44.41311" lon="1.02162">
        <ele>210</ele>
        <time>2025-08-28T08:35:23.000Z</time>
      </trkpt>
      <trkpt lat="44.41314" lon="1.0215">
        <ele>210</ele>
        <time>2025-08-28T08:35:35.000Z</time>
      </trkpt>
      <trkpt lat="44.41314" lon="1.02137">
        <ele>210</ele>
        <time>2025-08-28T08:35:46.000Z</time>
      </trkpt>
      <trkpt lat="44.41312" lon="1.02125">
        <ele>211</ele>
        <time>2025-08-28T08:35:55.000Z</time>
      </trkpt>
      <trkpt lat="44.4131" lon="1.02113">
        <ele>211</ele>
        <time>2025-08-28T08:36:06.000Z</time>
      </trkpt>
      <trkpt lat="44.41309" lon="1.02101">
        <ele>212</ele>
        <time>2025-08-28T08:36:13.000Z</time>
      </trkpt>
      <trkpt lat="44.41309" lon="1.02089">
        <ele>213</ele>
        <time>2025-08-28T08:36:25.000Z</time>
      </trkpt>
      <trkpt lat="44.41313" lon="1.02078">
        <ele>213</ele>
        <time>2025-08-28T08:36:39.000Z</time>
      </trkpt>
      <trkpt lat="44.41319" lon="1.02068">
        <ele>213</ele>
        <time>2025-08-28T08:36:48.000Z</time>
      </trkpt>
      <trkpt lat="44.41326" lon="1.02059">
        <ele>212</ele>
        <time>2025-08-28T08:36:57.000Z</time>
      </trkpt>
      <trkpt lat="44.41334" lon="1.02052">
        <ele>211</ele>
        <time>2025-08-28T08:37:08.000Z</time>
      </trkpt>
      <trkpt lat="44.4134" lon="1.02041">
        <ele>210</ele>
        <time>2025-08-28T08:37:31.000Z</time>
      </trkpt>
      <trkpt lat="44.41346" lon="1.02032">
        <ele>210</ele>
        <time>2025-08-28T08:37:37.000Z</time>
      </trkpt>
      <trkpt lat="44.41351" lon="1.02021">
        <ele>209</ele>
        <time>2025-08-28T08:37:47.000Z</time>
      </trkpt>
      <trkpt lat="44.41355" lon="1.02009">
        <ele>209</ele>
        <time>2025-08-28T08:37:58.000Z</time>
      </trkpt>
      <trkpt lat="44.41358" lon="1.01997">
        <ele>208</ele>
        <time>2025-08-28T08:38:07.000Z</time>
      </trkpt>
      <trkpt lat="44.41363" lon="1.01987">
        <ele>208</ele>
        <time>2025-08-28T08:38:14.000Z</time>
      </trkpt>
      <trkpt lat="44.41366" lon="1.01976">
        <ele>207</ele>
        <time>2025-08-28T08:38:21.000Z</time>
      </trkpt>
      <trkpt lat="44.41371" lon="1.01965">
        <ele>207</ele>
        <time>2025-08-28T08:38:31.000Z</time>
      </trkpt>
      <trkpt lat="44.41373" lon="1.01953">
        <ele>207</ele>
        <time>2025-08-28T08:38:42.000Z</time>
      </trkpt>
      <trkpt lat="44.41376" lon="1.01942">
        <ele>207</ele>
        <time>2025-08-28T08:38:54.000Z</time>
      </trkpt>
      <trkpt lat="44.41377" lon="1.0193">
        <ele>207</ele>
        <time>2025-08-28T08:39:06.000Z</time>
      </trkpt>
      <trkpt lat="44.41375" lon="1.01917">
        <ele>207</ele>
        <time>2025-08-28T08:40:02.000Z</time>
      </trkpt>
      <trkpt lat="44.41371" lon="1.01902">
        <ele>207</ele>
        <time>2025-08-28T08:40:16.000Z</time>
      </trkpt>
      <trkpt lat="44.41366" lon="1.01887">
        <ele>207</ele>
        <time>2025-08-28T08:40:26.000Z</time>
      </trkpt>
      <trkpt lat="44.41361" lon="1.01875">
        <ele>207</ele>
        <time>2025-08-28T08:40:34.000Z</time>
      </trkpt>
      <trkpt lat="44.41357" lon="1.01864">
        <ele>207</ele>
        <time>2025-08-28T08:40:42.000Z</time>
      </trkpt>
      <trkpt lat="44.41352" lon="1.01853">
        <ele>207</ele>
        <time>2025-08-28T08:40:51.000Z</time>
      </trkpt>
      <trkpt lat="44.41346" lon="1.01842">
        <ele>207</ele>
        <time>2025-08-28T08:41:02.000Z</time>
      </trkpt>
      <trkpt lat="44.41341" lon="1.01831">
        <ele>206</ele>
        <time>2025-08-28T08:41:11.000Z</time>
      </trkpt>
      <trkpt lat="44.41339" lon="1.01819">
        <ele>206</ele>
        <time>2025-08-28T08:41:22.000Z</time>
      </trkpt>
      <trkpt lat="44.41338" lon="1.01805">
        <ele>205</ele>
        <time>2025-08-28T08:41:32.000Z</time>
      </trkpt>
      <trkpt lat="44.41339" lon="1.01791">
        <ele>205</ele>
        <time>2025-08-28T08:41:43.000Z</time>
      </trkpt>
      <trkpt lat="44.41339" lon="1.01778">
        <ele>207</ele>
        <time>2025-08-28T08:41:53.000Z</time>
      </trkpt>
      <trkpt lat="44.41338" lon="1.01766">
        <ele>208</ele>
        <time>2025-08-28T08:42:02.000Z</time>
      </trkpt>
      <trkpt lat="44.41341" lon="1.01753">
        <ele>210</ele>
        <time>2025-08-28T08:42:12.000Z</time>
      </trkpt>
      <trkpt lat="44.41348" lon="1.01744">
        <ele>211</ele>
        <time>2025-08-28T08:42:28.000Z</time>
      </trkpt>
      <trkpt lat="44.41357" lon="1.01737">
        <ele>212</ele>
        <time>2025-08-28T08:43:46.000Z</time>
      </trkpt>
      <trkpt lat="44.41364" lon="1.0173">
        <ele>212</ele>
        <time>2025-08-28T08:43:56.000Z</time>
      </trkpt>
      <trkpt lat="44.41373" lon="1.0173">
        <ele>212</ele>
        <time>2025-08-28T08:44:06.000Z</time>
      </trkpt>
      <trkpt lat="44.41381" lon="1.01734">
        <ele>212</ele>
        <time>2025-08-28T08:44:14.000Z</time>
      </trkpt>
      <trkpt lat="44.4139" lon="1.01741">
        <ele>212</ele>
        <time>2025-08-28T08:44:24.000Z</time>
      </trkpt>
      <trkpt lat="44.41397" lon="1.01748">
        <ele>212</ele>
        <time>2025-08-28T08:44:34.000Z</time>
      </trkpt>
      <trkpt lat="44.41405" lon="1.01754">
        <ele>212</ele>
        <time>2025-08-28T08:44:42.000Z</time>
      </trkpt>
      <trkpt lat="44.41413" lon="1.01759">
        <ele>212</ele>
        <time>2025-08-28T08:44:51.000Z</time>
      </trkpt>
      <trkpt lat="44.41422" lon="1.01764">
        <ele>211</ele>
        <time>2025-08-28T08:45:03.000Z</time>
      </trkpt>
      <trkpt lat="44.4143" lon="1.01768">
        <ele>210</ele>
        <time>2025-08-28T08:45:16.000Z</time>
      </trkpt>
      <trkpt lat="44.41437" lon="1.01764">
        <ele>209</ele>
        <time>2025-08-28T08:45:23.000Z</time>
      </trkpt>
      <trkpt lat="44.41441" lon="1.01753">
        <ele>208</ele>
        <time>2025-08-28T08:45:32.000Z</time>
      </trkpt>
      <trkpt lat="44.41442" lon="1.01739">
        <ele>208</ele>
        <time>2025-08-28T08:45:40.000Z</time>
      </trkpt>
      <trkpt lat="44.41447" lon="1.01728">
        <ele>208</ele>
        <time>2025-08-28T08:45:49.000Z</time>
      </trkpt>
      <trkpt lat="44.41452" lon="1.01718">
        <ele>210</ele>
        <time>2025-08-28T08:46:01.000Z</time>
      </trkpt>
      <trkpt lat="44.4146" lon="1.0172">
        <ele>213</ele>
        <time>2025-08-28T08:46:12.000Z</time>
      </trkpt>
      <trkpt lat="44.41465" lon="1.0173">
        <ele>215</ele>
        <time>2025-08-28T08:46:21.000Z</time>
      </trkpt>
      <trkpt lat="44.41472" lon="1.01738">
        <ele>217</ele>
        <time>2025-08-28T08:46:34.000Z</time>
      </trkpt>
      <trkpt lat="44.41478" lon="1.01749">
        <ele>218</ele>
        <time>2025-08-28T08:46:51.000Z</time>
      </trkpt>
      <trkpt lat="44.41483" lon="1.0176">
        <ele>220</ele>
        <time>2025-08-28T08:47:01.000Z</time>
      </trkpt>
      <trkpt lat="44.41487" lon="1.01771">
        <ele>221</ele>
        <time>2025-08-28T08:47:14.000Z</time>
      </trkpt>
      <trkpt lat="44.41493" lon="1.0178">
        <ele>222</ele>
        <time>2025-08-28T08:47:27.000Z</time>
      </trkpt>
      <trkpt lat="44.41502" lon="1.01783">
        <ele>223</ele>
        <time>2025-08-28T08:47:36.000Z</time>
      </trkpt>
      <trkpt lat="44.41511" lon="1.01787">
        <ele>224</ele>
        <time>2025-08-28T08:47:47.000Z</time>
      </trkpt>
      <trkpt lat="44.4152" lon="1.01793">
        <ele>224</ele>
        <time>2025-08-28T08:47:57.000Z</time>
      </trkpt>
      <trkpt lat="44.41528" lon="1.01796">
        <ele>225</ele>
        <time>2025-08-28T08:50:49.000Z</time>
      </trkpt>
      <trkpt lat="44.41536" lon="1.01802">
        <ele>225</ele>
        <time>2025-08-28T08:51:37.000Z</time>
      </trkpt>
      <trkpt lat="44.41544" lon="1.01806">
        <ele>226</ele>
        <time>2025-08-28T08:51:47.000Z</time>
      </trkpt>
      <trkpt lat="44.41553" lon="1.0181">
        <ele>226</ele>
        <time>2025-08-28T08:51:57.000Z</time>
      </trkpt>
      <trkpt lat="44.41563" lon="1.01813">
        <ele>227</ele>
        <time>2025-08-28T08:52:05.000Z</time>
      </trkpt>
      <trkpt lat="44.41573" lon="1.01816">
        <ele>227</ele>
        <time>2025-08-28T08:52:15.000Z</time>
      </trkpt>
      <trkpt lat="44.41583" lon="1.01818">
        <ele>228</ele>
        <time>2025-08-28T08:52:25.000Z</time>
      </trkpt>
      <trkpt lat="44.41592" lon="1.01819">
        <ele>228</ele>
        <time>2025-08-28T08:52:33.000Z</time>
      </trkpt>
      <trkpt lat="44.41602" lon="1.01822">
        <ele>228</ele>
        <time>2025-08-28T08:52:43.000Z</time>
      </trkpt>
      <trkpt lat="44.41612" lon="1.01826">
        <ele>228</ele>
        <time>2025-08-28T08:52:59.000Z</time>
      </trkpt>
      <trkpt lat="44.41621" lon="1.01831">
        <ele>228</ele>
        <time>2025-08-28T08:53:07.000Z</time>
      </trkpt>
      <trkpt lat="44.41631" lon="1.01832">
        <ele>227</ele>
        <time>2025-08-28T08:53:16.000Z</time>
      </trkpt>
      <trkpt lat="44.41641" lon="1.01834">
        <ele>226</ele>
        <time>2025-08-28T08:53:37.000Z</time>
      </trkpt>
      <trkpt lat="44.4165" lon="1.01836">
        <ele>225</ele>
        <time>2025-08-28T08:53:47.000Z</time>
      </trkpt>
      <trkpt lat="44.41659" lon="1.01833">
        <ele>225</ele>
        <time>2025-08-28T08:53:59.000Z</time>
      </trkpt>
      <trkpt lat="44.41669" lon="1.0183">
        <ele>226</ele>
        <time>2025-08-28T08:55:33.000Z</time>
      </trkpt>
      <trkpt lat="44.41679" lon="1.01828">
        <ele>227</ele>
        <time>2025-08-28T08:55:44.000Z</time>
      </trkpt>
      <trkpt lat="44.41689" lon="1.01827">
        <ele>229</ele>
        <time>2025-08-28T08:55:52.000Z</time>
      </trkpt>
      <trkpt lat="44.41697" lon="1.01831">
        <ele>229</ele>
        <time>2025-08-28T08:56:12.000Z</time>
      </trkpt>
      <trkpt lat="44.41703" lon="1.01842">
        <ele>229</ele>
        <time>2025-08-28T08:56:22.000Z</time>
      </trkpt>
      <trkpt lat="44.41707" lon="1.01853">
        <ele>230</ele>
        <time>2025-08-28T08:56:30.000Z</time>
      </trkpt>
      <trkpt lat="44.41712" lon="1.01862">
        <ele>230</ele>
        <time>2025-08-28T08:56:37.000Z</time>
      </trkpt>
      <trkpt lat="44.41717" lon="1.01874">
        <ele>231</ele>
        <time>2025-08-28T08:56:46.000Z</time>
      </trkpt>
      <trkpt lat="44.41723" lon="1.01884">
        <ele>232</ele>
        <time>2025-08-28T08:56:54.000Z</time>
      </trkpt>
      <trkpt lat="44.4173" lon="1.01894">
        <ele>232</ele>
        <time>2025-08-28T08:57:01.000Z</time>
      </trkpt>
      <trkpt lat="44.41735" lon="1.01906">
        <ele>233</ele>
        <time>2025-08-28T08:57:12.000Z</time>
      </trkpt>
      <trkpt lat="44.4174" lon="1.01918">
        <ele>233</ele>
        <time>2025-08-28T08:57:20.000Z</time>
      </trkpt>
      <trkpt lat="44.41744" lon="1.0193">
        <ele>234</ele>
        <time>2025-08-28T08:57:28.000Z</time>
      </trkpt>
      <trkpt lat="44.41747" lon="1.01943">
        <ele>235</ele>
        <time>2025-08-28T08:57:40.000Z</time>
      </trkpt>
      <trkpt lat="44.41746" lon="1.01957">
        <ele>237</ele>
        <time>2025-08-28T08:57:48.000Z</time>
      </trkpt>
      <trkpt lat="44.41748" lon="1.01971">
        <ele>238</ele>
        <time>2025-08-28T08:57:59.000Z</time>
      </trkpt>
      <trkpt lat="44.41753" lon="1.01981">
        <ele>239</ele>
        <time>2025-08-28T08:58:06.000Z</time>
      </trkpt>
      <trkpt lat="44.41756" lon="1.01994">
        <ele>240</ele>
        <time>2025-08-28T08:58:17.000Z</time>
      </trkpt>
      <trkpt lat="44.41759" lon="1.02006">
        <ele>241</ele>
        <time>2025-08-28T08:58:29.000Z</time>
      </trkpt>
      <trkpt lat="44.41766" lon="1.02017">
        <ele>241</ele>
        <time>2025-08-28T08:58:38.000Z</time>
      </trkpt>
      <trkpt lat="44.41772" lon="1.02028">
        <ele>242</ele>
        <time>2025-08-28T08:58:48.000Z</time>
      </trkpt>
      <trkpt lat="44.41779" lon="1.02035">
        <ele>242</ele>
        <time>2025-08-28T08:59:02.000Z</time>
      </trkpt>
      <trkpt lat="44.41788" lon="1.02037">
        <ele>243</ele>
        <time>2025-08-28T08:59:13.000Z</time>
      </trkpt>
      <trkpt lat="44.41797" lon="1.02043">
        <ele>244</ele>
        <time>2025-08-28T08:59:22.000Z</time>
      </trkpt>
      <trkpt lat="44.41802" lon="1.02054">
        <ele>245</ele>
        <time>2025-08-28T08:59:32.000Z</time>
      </trkpt>
      <trkpt lat="44.41808" lon="1.02064">
        <ele>246</ele>
        <time>2025-08-28T08:59:43.000Z</time>
      </trkpt>
      <trkpt lat="44.41814" lon="1.02076">
        <ele>246</ele>
        <time>2025-08-28T08:59:52.000Z</time>
      </trkpt>
      <trkpt lat="44.41819" lon="1.02087">
        <ele>247</ele>
        <time>2025-08-28T09:00:02.000Z</time>
      </trkpt>
      <trkpt lat="44.41824" lon="1.02099">
        <ele>247</ele>
        <time>2025-08-28T09:00:11.000Z</time>
      </trkpt>
      <trkpt lat="44.4183" lon="1.02109">
        <ele>248</ele>
        <time>2025-08-28T09:00:19.000Z</time>
      </trkpt>
      <trkpt lat="44.41835" lon="1.0212">
        <ele>248</ele>
        <time>2025-08-28T09:00:29.000Z</time>
      </trkpt>
      <trkpt lat="44.4184" lon="1.02131">
        <ele>249</ele>
        <time>2025-08-28T09:00:39.000Z</time>
      </trkpt>
      <trkpt lat="44.41844" lon="1.02143">
        <ele>249</ele>
        <time>2025-08-28T09:00:46.000Z</time>
      </trkpt>
      <trkpt lat="44.41851" lon="1.02154">
        <ele>249</ele>
        <time>2025-08-28T09:00:57.000Z</time>
      </trkpt>
      <trkpt lat="44.41858" lon="1.02163">
        <ele>250</ele>
        <time>2025-08-28T09:01:05.000Z</time>
      </trkpt>
      <trkpt lat="44.41865" lon="1.02172">
        <ele>250</ele>
        <time>2025-08-28T09:01:13.000Z</time>
      </trkpt>
      <trkpt lat="44.41872" lon="1.02184">
        <ele>250</ele>
        <time>2025-08-28T09:01:43.000Z</time>
      </trkpt>
      <trkpt lat="44.41878" lon="1.02196">
        <ele>250</ele>
        <time>2025-08-28T09:01:52.000Z</time>
      </trkpt>
      <trkpt lat="44.41884" lon="1.02209">
        <ele>251</ele>
        <time>2025-08-28T09:02:02.000Z</time>
      </trkpt>
      <trkpt lat="44.41891" lon="1.0222">
        <ele>253</ele>
        <time>2025-08-28T09:02:12.000Z</time>
      </trkpt>
      <trkpt lat="44.41899" lon="1.02229">
        <ele>255</ele>
        <time>2025-08-28T09:02:21.000Z</time>
      </trkpt>
      <trkpt lat="44.41905" lon="1.02237">
        <ele>257</ele>
        <time>2025-08-28T09:02:31.000Z</time>
      </trkpt>
      <trkpt lat="44.41911" lon="1.02246">
        <ele>259</ele>
        <time>2025-08-28T09:02:38.000Z</time>
      </trkpt>
      <trkpt lat="44.41916" lon="1.02256">
        <ele>260</ele>
        <time>2025-08-28T09:02:49.000Z</time>
      </trkpt>
      <trkpt lat="44.41922" lon="1.02265">
        <ele>261</ele>
        <time>2025-08-28T09:03:01.000Z</time>
      </trkpt>
      <trkpt lat="44.4193" lon="1.02274">
        <ele>261</ele>
        <time>2025-08-28T09:03:11.000Z</time>
      </trkpt>
      <trkpt lat="44.41935" lon="1.02285">
        <ele>262</ele>
        <time>2025-08-28T09:03:18.000Z</time>
      </trkpt>
      <trkpt lat="44.4194" lon="1.02296">
        <ele>263</ele>
        <time>2025-08-28T09:03:27.000Z</time>
      </trkpt>
      <trkpt lat="44.41944" lon="1.02307">
        <ele>263</ele>
        <time>2025-08-28T09:03:36.000Z</time>
      </trkpt>
      <trkpt lat="44.41952" lon="1.02317">
        <ele>263</ele>
        <time>2025-08-28T09:03:46.000Z</time>
      </trkpt>
      <trkpt lat="44.41959" lon="1.02326">
        <ele>263</ele>
        <time>2025-08-28T09:03:57.000Z</time>
      </trkpt>
      <trkpt lat="44.41965" lon="1.02337">
        <ele>263</ele>
        <time>2025-08-28T09:04:05.000Z</time>
      </trkpt>
      <trkpt lat="44.41971" lon="1.02349">
        <ele>263</ele>
        <time>2025-08-28T09:04:13.000Z</time>
      </trkpt>
      <trkpt lat="44.41975" lon="1.02361">
        <ele>263</ele>
        <time>2025-08-28T09:04:21.000Z</time>
      </trkpt>
      <trkpt lat="44.41981" lon="1.02371">
        <ele>263</ele>
        <time>2025-08-28T09:04:28.000Z</time>
      </trkpt>
      <trkpt lat="44.41989" lon="1.02379">
        <ele>263</ele>
        <time>2025-08-28T09:04:37.000Z</time>
      </trkpt>
      <trkpt lat="44.41995" lon="1.02387">
        <ele>263</ele>
        <time>2025-08-28T09:04:45.000Z</time>
      </trkpt>
      <trkpt lat="44.42001" lon="1.02397">
        <ele>263</ele>
        <time>2025-08-28T09:04:54.000Z</time>
      </trkpt>
      <trkpt lat="44.42006" lon="1.02409">
        <ele>263</ele>
        <time>2025-08-28T09:05:05.000Z</time>
      </trkpt>
      <trkpt lat="44.42012" lon="1.02419">
        <ele>263</ele>
        <time>2025-08-28T09:05:14.000Z</time>
      </trkpt>
      <trkpt lat="44.42019" lon="1.02429">
        <ele>264</ele>
        <time>2025-08-28T09:05:23.000Z</time>
      </trkpt>
      <trkpt lat="44.42025" lon="1.02439">
        <ele>265</ele>
        <time>2025-08-28T09:05:33.000Z</time>
      </trkpt>
      <trkpt lat="44.42032" lon="1.02449">
        <ele>265</ele>
        <time>2025-08-28T09:05:43.000Z</time>
      </trkpt>
      <trkpt lat="44.42039" lon="1.02459">
        <ele>265</ele>
        <time>2025-08-28T09:05:56.000Z</time>
      </trkpt>
      <trkpt lat="44.42047" lon="1.02466">
        <ele>265</ele>
        <time>2025-08-28T09:06:11.000Z</time>
      </trkpt>
      <trkpt lat="44.42054" lon="1.02458">
        <ele>264</ele>
        <time>2025-08-28T09:07:13.000Z</time>
      </trkpt>
      <trkpt lat="44.4206" lon="1.02448">
        <ele>263</ele>
        <time>2025-08-28T09:07:21.000Z</time>
      </trkpt>
      <trkpt lat="44.42065" lon="1.02436">
        <ele>262</ele>
        <time>2025-08-28T09:07:30.000Z</time>
      </trkpt>
      <trkpt lat="44.42072" lon="1.02426">
        <ele>261</ele>
        <time>2025-08-28T09:08:14.000Z</time>
      </trkpt>
      <trkpt lat="44.42078" lon="1.02416">
        <ele>261</ele>
        <time>2025-08-28T09:08:21.000Z</time>
      </trkpt>
      <trkpt lat="44.42083" lon="1.02405">
        <ele>260</ele>
        <time>2025-08-28T09:08:28.000Z</time>
      </trkpt>
      <trkpt lat="44.42089" lon="1.02394">
        <ele>261</ele>
        <time>2025-08-28T09:08:37.000Z</time>
      </trkpt>
      <trkpt lat="44.42095" lon="1.02385">
        <ele>261</ele>
        <time>2025-08-28T09:08:45.000Z</time>
      </trkpt>
      <trkpt lat="44.42104" lon="1.0238">
        <ele>262</ele>
        <time>2025-08-28T09:08:53.000Z</time>
      </trkpt>
      <trkpt lat="44.42113" lon="1.02377">
        <ele>263</ele>
        <time>2025-08-28T09:09:01.000Z</time>
      </trkpt>
      <trkpt lat="44.42123" lon="1.02378">
        <ele>263</ele>
        <time>2025-08-28T09:09:08.000Z</time>
      </trkpt>
      <trkpt lat="44.42133" lon="1.0238">
        <ele>263</ele>
        <time>2025-08-28T09:09:17.000Z</time>
      </trkpt>
      <trkpt lat="44.42142" lon="1.02381">
        <ele>263</ele>
        <time>2025-08-28T09:09:27.000Z</time>
      </trkpt>
      <trkpt lat="44.42151" lon="1.02384">
        <ele>264</ele>
        <time>2025-08-28T09:09:35.000Z</time>
      </trkpt>
      <trkpt lat="44.42161" lon="1.0239">
        <ele>264</ele>
        <time>2025-08-28T09:09:43.000Z</time>
      </trkpt>
      <trkpt lat="44.42171" lon="1.02392">
        <ele>264</ele>
        <time>2025-08-28T09:09:53.000Z</time>
      </trkpt>
      <trkpt lat="44.4218" lon="1.02391">
        <ele>264</ele>
        <time>2025-08-28T09:10:01.000Z</time>
      </trkpt>
      <trkpt lat="44.42188" lon="1.02385">
        <ele>264</ele>
        <time>2025-08-28T09:10:08.000Z</time>
      </trkpt>
      <trkpt lat="44.42192" lon="1.02375">
        <ele>264</ele>
        <time>2025-08-28T09:10:16.000Z</time>
      </trkpt>
      <trkpt lat="44.42195" lon="1.02364">
        <ele>264</ele>
        <time>2025-08-28T09:10:25.000Z</time>
      </trkpt>
      <trkpt lat="44.42199" lon="1.02352">
        <ele>264</ele>
        <time>2025-08-28T09:10:33.000Z</time>
      </trkpt>
      <trkpt lat="44.42204" lon="1.0234">
        <ele>263</ele>
        <time>2025-08-28T09:10:42.000Z</time>
      </trkpt>
      <trkpt lat="44.42208" lon="1.02329">
        <ele>263</ele>
        <time>2025-08-28T09:10:51.000Z</time>
      </trkpt>
      <trkpt lat="44.42211" lon="1.02317">
        <ele>263</ele>
        <time>2025-08-28T09:10:59.000Z</time>
      </trkpt>
      <trkpt lat="44.42215" lon="1.02305">
        <ele>263</ele>
        <time>2025-08-28T09:11:07.000Z</time>
      </trkpt>
      <trkpt lat="44.42219" lon="1.02294">
        <ele>263</ele>
        <time>2025-08-28T09:11:17.000Z</time>
      </trkpt>
      <trkpt lat="44.42226" lon="1.02284">
        <ele>263</ele>
        <time>2025-08-28T09:11:31.000Z</time>
      </trkpt>
      <trkpt lat="44.42232" lon="1.02273">
        <ele>263</ele>
        <time>2025-08-28T09:11:40.000Z</time>
      </trkpt>
      <trkpt lat="44.42237" lon="1.02263">
        <ele>263</ele>
        <time>2025-08-28T09:11:49.000Z</time>
      </trkpt>
      <trkpt lat="44.42244" lon="1.02253">
        <ele>263</ele>
        <time>2025-08-28T09:11:58.000Z</time>
      </trkpt>
      <trkpt lat="44.42251" lon="1.02243">
        <ele>263</ele>
        <time>2025-08-28T09:12:07.000Z</time>
      </trkpt>
      <trkpt lat="44.4226" lon="1.02233">
        <ele>263</ele>
        <time>2025-08-28T09:12:15.000Z</time>
      </trkpt>
      <trkpt lat="44.42268" lon="1.02223">
        <ele>263</ele>
        <time>2025-08-28T09:12:23.000Z</time>
      </trkpt>
      <trkpt lat="44.42274" lon="1.02211">
        <ele>263</ele>
        <time>2025-08-28T09:12:32.000Z</time>
      </trkpt>
      <trkpt lat="44.42282" lon="1.02202">
        <ele>263</ele>
        <time>2025-08-28T09:12:39.000Z</time>
      </trkpt>
      <trkpt lat="44.42288" lon="1.02193">
        <ele>263</ele>
        <time>2025-08-28T09:12:48.000Z</time>
      </trkpt>
      <trkpt lat="44.42294" lon="1.02182">
        <ele>263</ele>
        <time>2025-08-28T09:12:56.000Z</time>
      </trkpt>
      <trkpt lat="44.42301" lon="1.0217">
        <ele>263</ele>
        <time>2025-08-28T09:13:03.000Z</time>
      </trkpt>
      <trkpt lat="44.42307" lon="1.02158">
        <ele>261</ele>
        <time>2025-08-28T09:13:11.000Z</time>
      </trkpt>
      <trkpt lat="44.42312" lon="1.02147">
        <ele>260</ele>
        <time>2025-08-28T09:13:18.000Z</time>
      </trkpt>
      <trkpt lat="44.42319" lon="1.02137">
        <ele>259</ele>
        <time>2025-08-28T09:13:26.000Z</time>
      </trkpt>
      <trkpt lat="44.42326" lon="1.02126">
        <ele>257</ele>
        <time>2025-08-28T09:13:36.000Z</time>
      </trkpt>
      <trkpt lat="44.42334" lon="1.02118">
        <ele>256</ele>
        <time>2025-08-28T09:13:43.000Z</time>
      </trkpt>
      <trkpt lat="44.42341" lon="1.02109">
        <ele>255</ele>
        <time>2025-08-28T09:13:52.000Z</time>
      </trkpt>
      <trkpt lat="44.42348" lon="1.02101">
        <ele>254</ele>
        <time>2025-08-28T09:14:00.000Z</time>
      </trkpt>
      <trkpt lat="44.42355" lon="1.02094">
        <ele>254</ele>
        <time>2025-08-28T09:14:08.000Z</time>
      </trkpt>
      <trkpt lat="44.42363" lon="1.02087">
        <ele>253</ele>
        <time>2025-08-28T09:14:15.000Z</time>
      </trkpt>
      <trkpt lat="44.4237" lon="1.02079">
        <ele>253</ele>
        <time>2025-08-28T09:14:22.000Z</time>
      </trkpt>
      <trkpt lat="44.42379" lon="1.02071">
        <ele>253</ele>
        <time>2025-08-28T09:14:29.000Z</time>
      </trkpt>
      <trkpt lat="44.42387" lon="1.02064">
        <ele>253</ele>
        <time>2025-08-28T09:14:37.000Z</time>
      </trkpt>
      <trkpt lat="44.42397" lon="1.02057">
        <ele>254</ele>
        <time>2025-08-28T09:14:46.000Z</time>
      </trkpt>
      <trkpt lat="44.42405" lon="1.02052">
        <ele>255</ele>
        <time>2025-08-28T09:14:54.000Z</time>
      </trkpt>
      <trkpt lat="44.42414" lon="1.0205">
        <ele>257</ele>
        <time>2025-08-28T09:15:02.000Z</time>
      </trkpt>
      <trkpt lat="44.42424" lon="1.0205">
        <ele>258</ele>
        <time>2025-08-28T09:15:09.000Z</time>
      </trkpt>
      <trkpt lat="44.42433" lon="1.02048">
        <ele>259</ele>
        <time>2025-08-28T09:15:18.000Z</time>
      </trkpt>
      <trkpt lat="44.42443" lon="1.02047">
        <ele>260</ele>
        <time>2025-08-28T09:15:26.000Z</time>
      </trkpt>
      <trkpt lat="44.42454" lon="1.02047">
        <ele>260</ele>
        <time>2025-08-28T09:15:33.000Z</time>
      </trkpt>
      <trkpt lat="44.42463" lon="1.02046">
        <ele>261</ele>
        <time>2025-08-28T09:15:41.000Z</time>
      </trkpt>
      <trkpt lat="44.42472" lon="1.02041">
        <ele>261</ele>
        <time>2025-08-28T09:15:49.000Z</time>
      </trkpt>
      <trkpt lat="44.42481" lon="1.02035">
        <ele>261</ele>
        <time>2025-08-28T09:15:58.000Z</time>
      </trkpt>
      <trkpt lat="44.4249" lon="1.02027">
        <ele>261</ele>
        <time>2025-08-28T09:16:05.000Z</time>
      </trkpt>
      <trkpt lat="44.42499" lon="1.02018">
        <ele>262</ele>
        <time>2025-08-28T09:16:14.000Z</time>
      </trkpt>
      <trkpt lat="44.42507" lon="1.0201">
        <ele>262</ele>
        <time>2025-08-28T09:16:22.000Z</time>
      </trkpt>
      <trkpt lat="44.42514" lon="1.02001">
        <ele>262</ele>
        <time>2025-08-28T09:16:29.000Z</time>
      </trkpt>
      <trkpt lat="44.42522" lon="1.01993">
        <ele>262</ele>
        <time>2025-08-28T09:16:38.000Z</time>
      </trkpt>
      <trkpt lat="44.4253" lon="1.01983">
        <ele>262</ele>
        <time>2025-08-28T09:16:46.000Z</time>
      </trkpt>
      <trkpt lat="44.42536" lon="1.01978">
        <ele>262</ele>
        <time>2025-08-28T09:16:55.000Z</time>
      </trkpt>
      <trkpt lat="44.42536" lon="1.01987">
        <ele>262</ele>
        <time>2025-08-28T09:18:43.000Z</time>
      </trkpt>
      <trkpt lat="44.42552" lon="1.01998">
        <ele>263</ele>
        <time>2025-08-28T09:19:03.000Z</time>
      </trkpt>
      <trkpt lat="44.42557" lon="1.02009">
        <ele>263</ele>
        <time>2025-08-28T09:19:11.000Z</time>
      </trkpt>
      <trkpt lat="44.42562" lon="1.02021">
        <ele>263</ele>
        <time>2025-08-28T09:19:19.000Z</time>
      </trkpt>
      <trkpt lat="44.42567" lon="1.02032">
        <ele>263</ele>
        <time>2025-08-28T09:19:28.000Z</time>
      </trkpt>
      <trkpt lat="44.42574" lon="1.02037">
        <ele>263</ele>
        <time>2025-08-28T09:19:43.000Z</time>
      </trkpt>
      <trkpt lat="44.42579" lon="1.02048">
        <ele>263</ele>
        <time>2025-08-28T09:20:05.000Z</time>
      </trkpt>
      <trkpt lat="44.42581" lon="1.02072">
        <ele>263</ele>
        <time>2025-08-28T09:23:58.000Z</time>
      </trkpt>
      <trkpt lat="44.42585" lon="1.02086">
        <ele>211</ele>
        <time>2025-08-28T09:40:12.000Z</time>
      </trkpt>
      <trkpt lat="44.42564" lon="1.02022">
        <ele>262</ele>
        <time>2025-08-28T10:57:46.000Z</time>
      </trkpt>
      <trkpt lat="44.42559" lon="1.02011">
        <ele>262</ele>
        <time>2025-08-28T10:57:56.000Z</time>
      </trkpt>
      <trkpt lat="44.42555" lon="1.02">
        <ele>262</ele>
        <time>2025-08-28T10:58:04.000Z</time>
      </trkpt>
      <trkpt lat="44.42554" lon="1.01987">
        <ele>262</ele>
        <time>2025-08-28T10:58:12.000Z</time>
      </trkpt>
      <trkpt lat="44.42552" lon="1.01975">
        <ele>262</ele>
        <time>2025-08-28T10:58:20.000Z</time>
      </trkpt>
      <trkpt lat="44.42552" lon="1.01962">
        <ele>262</ele>
        <time>2025-08-28T10:58:45.000Z</time>
      </trkpt>
      <trkpt lat="44.42556" lon="1.01949">
        <ele>264</ele>
        <time>2025-08-28T10:58:54.000Z</time>
      </trkpt>
      <trkpt lat="44.42563" lon="1.0194">
        <ele>266</ele>
        <time>2025-08-28T10:59:04.000Z</time>
      </trkpt>
      <trkpt lat="44.4257" lon="1.01933">
        <ele>268</ele>
        <time>2025-08-28T10:59:14.000Z</time>
      </trkpt>
      <trkpt lat="44.42577" lon="1.01925">
        <ele>269</ele>
        <time>2025-08-28T10:59:25.000Z</time>
      </trkpt>
      <trkpt lat="44.42584" lon="1.01916">
        <ele>268</ele>
        <time>2025-08-28T10:59:45.000Z</time>
      </trkpt>
      <trkpt lat="44.42591" lon="1.01905">
        <ele>267</ele>
        <time>2025-08-28T10:59:54.000Z</time>
      </trkpt>
      <trkpt lat="44.42597" lon="1.01894">
        <ele>266</ele>
        <time>2025-08-28T11:00:02.000Z</time>
      </trkpt>
      <trkpt lat="44.42603" lon="1.01883">
        <ele>266</ele>
        <time>2025-08-28T11:00:12.000Z</time>
      </trkpt>
      <trkpt lat="44.42609" lon="1.01873">
        <ele>265</ele>
        <time>2025-08-28T11:00:20.000Z</time>
      </trkpt>
      <trkpt lat="44.42616" lon="1.01862">
        <ele>265</ele>
        <time>2025-08-28T11:00:29.000Z</time>
      </trkpt>
      <trkpt lat="44.42622" lon="1.01851">
        <ele>265</ele>
        <time>2025-08-28T11:00:40.000Z</time>
      </trkpt>
      <trkpt lat="44.42629" lon="1.0184">
        <ele>265</ele>
        <time>2025-08-28T11:00:49.000Z</time>
      </trkpt>
      <trkpt lat="44.42637" lon="1.0183">
        <ele>265</ele>
        <time>2025-08-28T11:00:59.000Z</time>
      </trkpt>
      <trkpt lat="44.42643" lon="1.01821">
        <ele>263</ele>
        <time>2025-08-28T11:01:08.000Z</time>
      </trkpt>
      <trkpt lat="44.4265" lon="1.01812">
        <ele>262</ele>
        <time>2025-08-28T11:01:16.000Z</time>
      </trkpt>
      <trkpt lat="44.42657" lon="1.01803">
        <ele>260</ele>
        <time>2025-08-28T11:01:26.000Z</time>
      </trkpt>
      <trkpt lat="44.42664" lon="1.01793">
        <ele>258</ele>
        <time>2025-08-28T11:01:35.000Z</time>
      </trkpt>
      <trkpt lat="44.42671" lon="1.01782">
        <ele>257</ele>
        <time>2025-08-28T11:01:45.000Z</time>
      </trkpt>
      <trkpt lat="44.42678" lon="1.01772">
        <ele>259</ele>
        <time>2025-08-28T11:01:56.000Z</time>
      </trkpt>
      <trkpt lat="44.42685" lon="1.01761">
        <ele>261</ele>
        <time>2025-08-28T11:02:06.000Z</time>
      </trkpt>
      <trkpt lat="44.42692" lon="1.01753">
        <ele>264</ele>
        <time>2025-08-28T11:02:16.000Z</time>
      </trkpt>
      <trkpt lat="44.42699" lon="1.01742">
        <ele>268</ele>
        <time>2025-08-28T11:02:26.000Z</time>
      </trkpt>
      <trkpt lat="44.42706" lon="1.01731">
        <ele>269</ele>
        <time>2025-08-28T11:02:36.000Z</time>
      </trkpt>
      <trkpt lat="44.42713" lon="1.01721">
        <ele>270</ele>
        <time>2025-08-28T11:02:46.000Z</time>
      </trkpt>
      <trkpt lat="44.4272" lon="1.01712">
        <ele>271</ele>
        <time>2025-08-28T11:03:07.000Z</time>
      </trkpt>
      <trkpt lat="44.42727" lon="1.01703">
        <ele>272</ele>
        <time>2025-08-28T11:03:15.000Z</time>
      </trkpt>
      <trkpt lat="44.42734" lon="1.01692">
        <ele>273</ele>
        <time>2025-08-28T11:03:26.000Z</time>
      </trkpt>
      <trkpt lat="44.42741" lon="1.01683">
        <ele>273</ele>
        <time>2025-08-28T11:03:36.000Z</time>
      </trkpt>
      <trkpt lat="44.42748" lon="1.01674">
        <ele>273</ele>
        <time>2025-08-28T11:03:46.000Z</time>
      </trkpt>
      <trkpt lat="44.42756" lon="1.01666">
        <ele>273</ele>
        <time>2025-08-28T11:03:55.000Z</time>
      </trkpt>
      <trkpt lat="44.42764" lon="1.0166">
        <ele>273</ele>
        <time>2025-08-28T11:04:05.000Z</time>
      </trkpt>
      <trkpt lat="44.42773" lon="1.01653">
        <ele>272</ele>
        <time>2025-08-28T11:04:16.000Z</time>
      </trkpt>
      <trkpt lat="44.42782" lon="1.01647">
        <ele>272</ele>
        <time>2025-08-28T11:04:26.000Z</time>
      </trkpt>
      <trkpt lat="44.42791" lon="1.01641">
        <ele>271</ele>
        <time>2025-08-28T11:04:40.000Z</time>
      </trkpt>
      <trkpt lat="44.428" lon="1.01636">
        <ele>271</ele>
        <time>2025-08-28T11:05:06.000Z</time>
      </trkpt>
      <trkpt lat="44.4281" lon="1.01633">
        <ele>271</ele>
        <time>2025-08-28T11:05:15.000Z</time>
      </trkpt>
      <trkpt lat="44.42819" lon="1.0163">
        <ele>271</ele>
        <time>2025-08-28T11:05:30.000Z</time>
      </trkpt>
      <trkpt lat="44.42828" lon="1.01627">
        <ele>271</ele>
        <time>2025-08-28T11:05:38.000Z</time>
      </trkpt>
      <trkpt lat="44.42837" lon="1.01627">
        <ele>272</ele>
        <time>2025-08-28T11:05:46.000Z</time>
      </trkpt>
      <trkpt lat="44.42847" lon="1.01625">
        <ele>272</ele>
        <time>2025-08-28T11:05:54.000Z</time>
      </trkpt>
      <trkpt lat="44.42857" lon="1.01623">
        <ele>272</ele>
        <time>2025-08-28T11:06:04.000Z</time>
      </trkpt>
      <trkpt lat="44.42867" lon="1.01622">
        <ele>272</ele>
        <time>2025-08-28T11:06:14.000Z</time>
      </trkpt>
      <trkpt lat="44.42876" lon="1.01622">
        <ele>272</ele>
        <time>2025-08-28T11:06:21.000Z</time>
      </trkpt>
      <trkpt lat="44.42886" lon="1.01622">
        <ele>272</ele>
        <time>2025-08-28T11:06:29.000Z</time>
      </trkpt>
      <trkpt lat="44.42896" lon="1.0162">
        <ele>272</ele>
        <time>2025-08-28T11:06:38.000Z</time>
      </trkpt>
      <trkpt lat="44.42904" lon="1.01614">
        <ele>272</ele>
        <time>2025-08-28T11:06:48.000Z</time>
      </trkpt>
      <trkpt lat="44.42907" lon="1.01603">
        <ele>273</ele>
        <time>2025-08-28T11:06:58.000Z</time>
      </trkpt>
      <trkpt lat="44.42907" lon="1.01589">
        <ele>274</ele>
        <time>2025-08-28T11:07:08.000Z</time>
      </trkpt>
      <trkpt lat="44.42908" lon="1.01575">
        <ele>275</ele>
        <time>2025-08-28T11:07:18.000Z</time>
      </trkpt>
      <trkpt lat="44.4291" lon="1.0156">
        <ele>275</ele>
        <time>2025-08-28T11:07:28.000Z</time>
      </trkpt>
      <trkpt lat="44.42913" lon="1.01546">
        <ele>276</ele>
        <time>2025-08-28T11:07:38.000Z</time>
      </trkpt>
      <trkpt lat="44.42917" lon="1.01533">
        <ele>276</ele>
        <time>2025-08-28T11:07:49.000Z</time>
      </trkpt>
      <trkpt lat="44.42922" lon="1.0152">
        <ele>277</ele>
        <time>2025-08-28T11:08:04.000Z</time>
      </trkpt>
      <trkpt lat="44.42927" lon="1.01508">
        <ele>277</ele>
        <time>2025-08-28T11:08:27.000Z</time>
      </trkpt>
      <trkpt lat="44.42933" lon="1.01498">
        <ele>277</ele>
        <time>2025-08-28T11:08:35.000Z</time>
      </trkpt>
      <trkpt lat="44.42939" lon="1.01487">
        <ele>277</ele>
        <time>2025-08-28T11:08:45.000Z</time>
      </trkpt>
      <trkpt lat="44.42947" lon="1.01479">
        <ele>278</ele>
        <time>2025-08-28T11:08:56.000Z</time>
      </trkpt>
      <trkpt lat="44.42955" lon="1.01462">
        <ele>228</ele>
        <time>2025-08-28T11:10:49.000Z</time>
        <extensions>
          <visugpx:TrkExtension xmlns:visugpx="https://www.visugpx.com/editgpx/">
            <visugpx:node>1</visugpx:node>
            </visugpx:TrkExtension>
        </extensions>
      </trkpt>
    </trkseg>
  </trk>
</gpx>